<?xml version="1.0" encoding="UTF-8" standalone="no" ?>
<gpx xmlns="http://www.topografix.com/GPX/1/1" xmlns:xsi="http://www.w3.org/2001/XMLSchema-instance" xsi:schemaLocation="http://www.topografix.com/GPX/1/1 http://www.topografix.com/GPX/1/1/gpx.xsd" version="1.1" creator="VisuGPX - https://www.visugpx.com">
  <metadata>
    <name>Tour de la valpelle</name>
    <desc><![CDATA[Petite ballade]]></desc>
  </metadata>
  <trk>
    <name><![CDATA[Tour de la valpelle_1]]></name>
    <trkseg>
      <trkpt lat="47.7651" lon="5.30686">
        <ele>330</ele>
        <time>2013-05-04T15:01:58.000Z</time>
      </trkpt>
      <trkpt lat="47.76512" lon="5.30684">
        <ele>330</ele>
        <time>2013-05-04T15:02:00.000Z</time>
      </trkpt>
      <trkpt lat="47.76513" lon="5.30677">
        <ele>330</ele>
        <time>2013-05-04T15:02:06.000Z</time>
      </trkpt>
      <trkpt lat="47.76514" lon="5.30671">
        <ele>330</ele>
        <time>2013-05-04T15:02:09.000Z</time>
      </trkpt>
      <trkpt lat="47.76516" lon="5.30668">
        <ele>331</ele>
        <time>2013-05-04T15:02:11.000Z</time>
      </trkpt>
      <trkpt lat="47.76517" lon="5.30667">
        <ele>331</ele>
        <time>2013-05-04T15:02:14.000Z</time>
      </trkpt>
      <trkpt lat="47.76518" lon="5.30663">
        <ele>331</ele>
        <time>2013-05-04T15:02:16.000Z</time>
      </trkpt>
      <trkpt lat="47.76519" lon="5.3066">
        <ele>332</ele>
        <time>2013-05-04T15:02:18.000Z</time>
      </trkpt>
      <trkpt lat="47.76519" lon="5.30658">
        <ele>332</ele>
        <time>2013-05-04T15:02:20.000Z</time>
      </trkpt>
      <trkpt lat="47.76519" lon="5.30651">
        <ele>332</ele>
        <time>2013-05-04T15:02:23.000Z</time>
      </trkpt>
      <trkpt lat="47.76522" lon="5.30643">
        <ele>333</ele>
        <time>2013-05-04T15:02:28.000Z</time>
      </trkpt>
      <trkpt lat="47.76525" lon="5.30633">
        <ele>334</ele>
        <time>2013-05-04T15:02:35.000Z</time>
      </trkpt>
      <trkpt lat="47.76529" lon="5.30626">
        <ele>335</ele>
        <time>2013-05-04T15:02:38.000Z</time>
      </trkpt>
      <trkpt lat="47.76529" lon="5.30624">
        <ele>335</ele>
        <time>2013-05-04T15:02:40.000Z</time>
      </trkpt>
      <trkpt lat="47.76533" lon="5.30615">
        <ele>336</ele>
        <time>2013-05-04T15:02:45.000Z</time>
      </trkpt>
      <trkpt lat="47.76538" lon="5.30609">
        <ele>337</ele>
        <time>2013-05-04T15:02:48.000Z</time>
      </trkpt>
      <trkpt lat="47.7654" lon="5.30605">
        <ele>337</ele>
        <time>2013-05-04T15:02:50.000Z</time>
      </trkpt>
      <trkpt lat="47.76543" lon="5.306">
        <ele>338</ele>
        <time>2013-05-04T15:02:53.000Z</time>
      </trkpt>
      <trkpt lat="47.76546" lon="5.30595">
        <ele>339</ele>
        <time>2013-05-04T15:02:56.000Z</time>
      </trkpt>
      <trkpt lat="47.76548" lon="5.30593">
        <ele>339</ele>
        <time>2013-05-04T15:02:58.000Z</time>
      </trkpt>
      <trkpt lat="47.7655" lon="5.3059">
        <ele>340</ele>
        <time>2013-05-04T15:03:01.000Z</time>
      </trkpt>
      <trkpt lat="47.7655" lon="5.30588">
        <ele>340</ele>
        <time>2013-05-04T15:03:03.000Z</time>
      </trkpt>
      <trkpt lat="47.76553" lon="5.30583">
        <ele>341</ele>
        <time>2013-05-04T15:03:06.000Z</time>
      </trkpt>
      <trkpt lat="47.76556" lon="5.30576">
        <ele>342</ele>
        <time>2013-05-04T15:03:13.000Z</time>
      </trkpt>
      <trkpt lat="47.76561" lon="5.30571">
        <ele>343</ele>
        <time>2013-05-04T15:03:19.000Z</time>
      </trkpt>
      <trkpt lat="47.76562" lon="5.30569">
        <ele>343</ele>
        <time>2013-05-04T15:03:22.000Z</time>
      </trkpt>
      <trkpt lat="47.76563" lon="5.30563">
        <ele>344</ele>
        <time>2013-05-04T15:03:26.000Z</time>
      </trkpt>
      <trkpt lat="47.76564" lon="5.30554">
        <ele>345</ele>
        <time>2013-05-04T15:03:29.000Z</time>
      </trkpt>
      <trkpt lat="47.76566" lon="5.30547">
        <ele>346</ele>
        <time>2013-05-04T15:03:32.000Z</time>
      </trkpt>
      <trkpt lat="47.76567" lon="5.30543">
        <ele>347</ele>
        <time>2013-05-04T15:03:35.000Z</time>
      </trkpt>
      <trkpt lat="47.76569" lon="5.30534">
        <ele>349</ele>
        <time>2013-05-04T15:03:38.000Z</time>
      </trkpt>
      <trkpt lat="47.7657" lon="5.30531">
        <ele>350</ele>
        <time>2013-05-04T15:03:40.000Z</time>
      </trkpt>
      <trkpt lat="47.76572" lon="5.30526">
        <ele>351</ele>
        <time>2013-05-04T15:03:44.000Z</time>
      </trkpt>
      <trkpt lat="47.76574" lon="5.30524">
        <ele>352</ele>
        <time>2013-05-04T15:03:46.000Z</time>
      </trkpt>
      <trkpt lat="47.76577" lon="5.30522">
        <ele>353</ele>
        <time>2013-05-04T15:03:49.000Z</time>
      </trkpt>
      <trkpt lat="47.7658" lon="5.30518">
        <ele>353</ele>
        <time>2013-05-04T15:03:52.000Z</time>
      </trkpt>
      <trkpt lat="47.76581" lon="5.30515">
        <ele>354</ele>
        <time>2013-05-04T15:03:54.000Z</time>
      </trkpt>
      <trkpt lat="47.76583" lon="5.30512">
        <ele>355</ele>
        <time>2013-05-04T15:03:56.000Z</time>
      </trkpt>
      <trkpt lat="47.76584" lon="5.30508">
        <ele>355</ele>
        <time>2013-05-04T15:03:59.000Z</time>
      </trkpt>
      <trkpt lat="47.76588" lon="5.30502">
        <ele>356</ele>
        <time>2013-05-04T15:04:02.000Z</time>
      </trkpt>
      <trkpt lat="47.7659" lon="5.30498">
        <ele>357</ele>
        <time>2013-05-04T15:04:05.000Z</time>
      </trkpt>
      <trkpt lat="47.76592" lon="5.30497">
        <ele>358</ele>
        <time>2013-05-04T15:04:08.000Z</time>
      </trkpt>
      <trkpt lat="47.76594" lon="5.30492">
        <ele>358</ele>
        <time>2013-05-04T15:04:11.000Z</time>
      </trkpt>
      <trkpt lat="47.76596" lon="5.30489">
        <ele>359</ele>
        <time>2013-05-04T15:04:13.000Z</time>
      </trkpt>
      <trkpt lat="47.76598" lon="5.30487">
        <ele>359</ele>
        <time>2013-05-04T15:04:16.000Z</time>
      </trkpt>
      <trkpt lat="47.766" lon="5.30485">
        <ele>360</ele>
        <time>2013-05-04T15:04:19.000Z</time>
      </trkpt>
      <trkpt lat="47.76609" lon="5.30474">
        <ele>361</ele>
        <time>2013-05-04T15:04:26.000Z</time>
      </trkpt>
      <trkpt lat="47.76613" lon="5.30465">
        <ele>362</ele>
        <time>2013-05-04T15:04:33.000Z</time>
      </trkpt>
      <trkpt lat="47.76614" lon="5.30459">
        <ele>362</ele>
        <time>2013-05-04T15:04:35.000Z</time>
      </trkpt>
      <trkpt lat="47.76615" lon="5.30453">
        <ele>363</ele>
        <time>2013-05-04T15:04:38.000Z</time>
      </trkpt>
      <trkpt lat="47.76616" lon="5.30452">
        <ele>363</ele>
        <time>2013-05-04T15:04:40.000Z</time>
      </trkpt>
      <trkpt lat="47.7662" lon="5.30445">
        <ele>364</ele>
        <time>2013-05-04T15:04:45.000Z</time>
      </trkpt>
      <trkpt lat="47.76622" lon="5.30438">
        <ele>364</ele>
        <time>2013-05-04T15:04:52.000Z</time>
      </trkpt>
      <trkpt lat="47.76622" lon="5.30437">
        <ele>364</ele>
        <time>2013-05-04T15:04:54.000Z</time>
      </trkpt>
      <trkpt lat="47.76626" lon="5.30434">
        <ele>365</ele>
        <time>2013-05-04T15:04:57.000Z</time>
      </trkpt>
      <trkpt lat="47.76628" lon="5.3043">
        <ele>365</ele>
        <time>2013-05-04T15:05:00.000Z</time>
      </trkpt>
      <trkpt lat="47.76629" lon="5.30427">
        <ele>365</ele>
        <time>2013-05-04T15:05:02.000Z</time>
      </trkpt>
      <trkpt lat="47.7663" lon="5.30426">
        <ele>365</ele>
        <time>2013-05-04T15:05:05.000Z</time>
      </trkpt>
      <trkpt lat="47.76634" lon="5.3042">
        <ele>365</ele>
        <time>2013-05-04T15:05:10.000Z</time>
      </trkpt>
      <trkpt lat="47.76637" lon="5.30418">
        <ele>365</ele>
        <time>2013-05-04T15:05:12.000Z</time>
      </trkpt>
      <trkpt lat="47.76639" lon="5.30414">
        <ele>365</ele>
        <time>2013-05-04T15:05:15.000Z</time>
      </trkpt>
      <trkpt lat="47.7664" lon="5.3041">
        <ele>365</ele>
        <time>2013-05-04T15:05:18.000Z</time>
      </trkpt>
      <trkpt lat="47.76642" lon="5.304">
        <ele>366</ele>
        <time>2013-05-04T15:05:24.000Z</time>
      </trkpt>
      <trkpt lat="47.76651" lon="5.30355">
        <ele>367</ele>
        <time>2013-05-04T15:05:55.000Z</time>
      </trkpt>
      <trkpt lat="47.76649" lon="5.30347">
        <ele>367</ele>
        <time>2013-05-04T15:05:58.000Z</time>
      </trkpt>
      <trkpt lat="47.7665" lon="5.30342">
        <ele>367</ele>
        <time>2013-05-04T15:06:01.000Z</time>
      </trkpt>
      <trkpt lat="47.76651" lon="5.30333">
        <ele>368</ele>
        <time>2013-05-04T15:06:06.000Z</time>
      </trkpt>
      <trkpt lat="47.76651" lon="5.30329">
        <ele>368</ele>
        <time>2013-05-04T15:06:09.000Z</time>
      </trkpt>
      <trkpt lat="47.76654" lon="5.3031">
        <ele>368</ele>
        <time>2013-05-04T15:06:23.000Z</time>
      </trkpt>
      <trkpt lat="47.76655" lon="5.30306">
        <ele>368</ele>
        <time>2013-05-04T15:06:26.000Z</time>
      </trkpt>
      <trkpt lat="47.76656" lon="5.30303">
        <ele>369</ele>
        <time>2013-05-04T15:06:28.000Z</time>
      </trkpt>
      <trkpt lat="47.76664" lon="5.30293">
        <ele>369</ele>
        <time>2013-05-04T15:06:36.000Z</time>
      </trkpt>
      <trkpt lat="47.76666" lon="5.30292">
        <ele>369</ele>
        <time>2013-05-04T15:06:38.000Z</time>
      </trkpt>
      <trkpt lat="47.76667" lon="5.30291">
        <ele>369</ele>
        <time>2013-05-04T15:06:41.000Z</time>
      </trkpt>
      <trkpt lat="47.76679" lon="5.30282">
        <ele>369</ele>
        <time>2013-05-04T15:06:51.000Z</time>
      </trkpt>
      <trkpt lat="47.76682" lon="5.30281">
        <ele>370</ele>
        <time>2013-05-04T15:06:53.000Z</time>
      </trkpt>
      <trkpt lat="47.76687" lon="5.30277">
        <ele>370</ele>
        <time>2013-05-04T15:06:59.000Z</time>
      </trkpt>
      <trkpt lat="47.76691" lon="5.30273">
        <ele>370</ele>
        <time>2013-05-04T15:07:05.000Z</time>
      </trkpt>
      <trkpt lat="47.76693" lon="5.30271">
        <ele>370</ele>
        <time>2013-05-04T15:07:07.000Z</time>
      </trkpt>
      <trkpt lat="47.76698" lon="5.30266">
        <ele>371</ele>
        <time>2013-05-04T15:07:10.000Z</time>
      </trkpt>
      <trkpt lat="47.7671" lon="5.30253">
        <ele>372</ele>
        <time>2013-05-04T15:07:25.000Z</time>
      </trkpt>
      <trkpt lat="47.76714" lon="5.30249">
        <ele>372</ele>
        <time>2013-05-04T15:07:30.000Z</time>
      </trkpt>
      <trkpt lat="47.7672" lon="5.30245">
        <ele>372</ele>
        <time>2013-05-04T15:07:37.000Z</time>
      </trkpt>
      <trkpt lat="47.76722" lon="5.30244">
        <ele>373</ele>
        <time>2013-05-04T15:07:39.000Z</time>
      </trkpt>
      <trkpt lat="47.76724" lon="5.3024">
        <ele>373</ele>
        <time>2013-05-04T15:07:42.000Z</time>
      </trkpt>
      <trkpt lat="47.76734" lon="5.30228">
        <ele>374</ele>
        <time>2013-05-04T15:07:53.000Z</time>
      </trkpt>
      <trkpt lat="47.76746" lon="5.30214">
        <ele>375</ele>
        <time>2013-05-04T15:08:06.000Z</time>
      </trkpt>
      <trkpt lat="47.76747" lon="5.30213">
        <ele>375</ele>
        <time>2013-05-04T15:08:08.000Z</time>
      </trkpt>
      <trkpt lat="47.76749" lon="5.3021">
        <ele>375</ele>
        <time>2013-05-04T15:08:11.000Z</time>
      </trkpt>
      <trkpt lat="47.76757" lon="5.30202">
        <ele>376</ele>
        <time>2013-05-04T15:08:19.000Z</time>
      </trkpt>
      <trkpt lat="47.76759" lon="5.30199">
        <ele>376</ele>
        <time>2013-05-04T15:08:21.000Z</time>
      </trkpt>
      <trkpt lat="47.76761" lon="5.30197">
        <ele>376</ele>
        <time>2013-05-04T15:08:23.000Z</time>
      </trkpt>
      <trkpt lat="47.76762" lon="5.30195">
        <ele>376</ele>
        <time>2013-05-04T15:08:25.000Z</time>
      </trkpt>
      <trkpt lat="47.76764" lon="5.30194">
        <ele>376</ele>
        <time>2013-05-04T15:08:27.000Z</time>
      </trkpt>
      <trkpt lat="47.76766" lon="5.30191">
        <ele>376</ele>
        <time>2013-05-04T15:08:30.000Z</time>
      </trkpt>
      <trkpt lat="47.7677" lon="5.30188">
        <ele>377</ele>
        <time>2013-05-04T15:08:33.000Z</time>
      </trkpt>
      <trkpt lat="47.76772" lon="5.30184">
        <ele>377</ele>
        <time>2013-05-04T15:08:36.000Z</time>
      </trkpt>
      <trkpt lat="47.76776" lon="5.30181">
        <ele>377</ele>
        <time>2013-05-04T15:08:39.000Z</time>
      </trkpt>
      <trkpt lat="47.76782" lon="5.30175">
        <ele>378</ele>
        <time>2013-05-04T15:08:46.000Z</time>
      </trkpt>
      <trkpt lat="47.76784" lon="5.30175">
        <ele>378</ele>
        <time>2013-05-04T15:08:49.000Z</time>
      </trkpt>
      <trkpt lat="47.76784" lon="5.30173">
        <ele>378</ele>
        <time>2013-05-04T15:08:52.000Z</time>
      </trkpt>
      <trkpt lat="47.76785" lon="5.30171">
        <ele>378</ele>
        <time>2013-05-04T15:08:54.000Z</time>
      </trkpt>
      <trkpt lat="47.76788" lon="5.30168">
        <ele>378</ele>
        <time>2013-05-04T15:08:57.000Z</time>
      </trkpt>
      <trkpt lat="47.76791" lon="5.30165">
        <ele>378</ele>
        <time>2013-05-04T15:09:00.000Z</time>
      </trkpt>
      <trkpt lat="47.76794" lon="5.30163">
        <ele>378</ele>
        <time>2013-05-04T15:09:03.000Z</time>
      </trkpt>
      <trkpt lat="47.76796" lon="5.30161">
        <ele>379</ele>
        <time>2013-05-04T15:09:05.000Z</time>
      </trkpt>
      <trkpt lat="47.76809" lon="5.30147">
        <ele>380</ele>
        <time>2013-05-04T15:09:19.000Z</time>
      </trkpt>
      <trkpt lat="47.76812" lon="5.30142">
        <ele>380</ele>
        <time>2013-05-04T15:09:22.000Z</time>
      </trkpt>
      <trkpt lat="47.76814" lon="5.30139">
        <ele>380</ele>
        <time>2013-05-04T15:09:24.000Z</time>
      </trkpt>
      <trkpt lat="47.76817" lon="5.30137">
        <ele>380</ele>
        <time>2013-05-04T15:09:27.000Z</time>
      </trkpt>
      <trkpt lat="47.76818" lon="5.30136">
        <ele>381</ele>
        <time>2013-05-04T15:09:29.000Z</time>
      </trkpt>
      <trkpt lat="47.7682" lon="5.30135">
        <ele>381</ele>
        <time>2013-05-04T15:09:31.000Z</time>
      </trkpt>
      <trkpt lat="47.76822" lon="5.30131">
        <ele>381</ele>
        <time>2013-05-04T15:09:34.000Z</time>
      </trkpt>
      <trkpt lat="47.76825" lon="5.30127">
        <ele>381</ele>
        <time>2013-05-04T15:09:37.000Z</time>
      </trkpt>
      <trkpt lat="47.76827" lon="5.30124">
        <ele>382</ele>
        <time>2013-05-04T15:09:40.000Z</time>
      </trkpt>
      <trkpt lat="47.76835" lon="5.30116">
        <ele>383</ele>
        <time>2013-05-04T15:09:48.000Z</time>
      </trkpt>
      <trkpt lat="47.76836" lon="5.30115">
        <ele>383</ele>
        <time>2013-05-04T15:09:50.000Z</time>
      </trkpt>
      <trkpt lat="47.76839" lon="5.30112">
        <ele>383</ele>
        <time>2013-05-04T15:09:54.000Z</time>
      </trkpt>
      <trkpt lat="47.7684" lon="5.3011">
        <ele>384</ele>
        <time>2013-05-04T15:09:56.000Z</time>
      </trkpt>
      <trkpt lat="47.76842" lon="5.30107">
        <ele>384</ele>
        <time>2013-05-04T15:09:59.000Z</time>
      </trkpt>
      <trkpt lat="47.76845" lon="5.30104">
        <ele>384</ele>
        <time>2013-05-04T15:10:02.000Z</time>
      </trkpt>
      <trkpt lat="47.76846" lon="5.30101">
        <ele>384</ele>
        <time>2013-05-04T15:10:04.000Z</time>
      </trkpt>
      <trkpt lat="47.76849" lon="5.30097">
        <ele>385</ele>
        <time>2013-05-04T15:10:07.000Z</time>
      </trkpt>
      <trkpt lat="47.76851" lon="5.30094">
        <ele>385</ele>
        <time>2013-05-04T15:10:10.000Z</time>
      </trkpt>
      <trkpt lat="47.76854" lon="5.30089">
        <ele>385</ele>
        <time>2013-05-04T15:10:13.000Z</time>
      </trkpt>
      <trkpt lat="47.76854" lon="5.30087">
        <ele>386</ele>
        <time>2013-05-04T15:10:15.000Z</time>
      </trkpt>
      <trkpt lat="47.76857" lon="5.30082">
        <ele>386</ele>
        <time>2013-05-04T15:10:18.000Z</time>
      </trkpt>
      <trkpt lat="47.76857" lon="5.30081">
        <ele>387</ele>
        <time>2013-05-04T15:10:20.000Z</time>
      </trkpt>
      <trkpt lat="47.76861" lon="5.30074">
        <ele>387</ele>
        <time>2013-05-04T15:10:25.000Z</time>
      </trkpt>
      <trkpt lat="47.76863" lon="5.30069">
        <ele>388</ele>
        <time>2013-05-04T15:10:28.000Z</time>
      </trkpt>
      <trkpt lat="47.76869" lon="5.30057">
        <ele>389</ele>
        <time>2013-05-04T15:10:37.000Z</time>
      </trkpt>
      <trkpt lat="47.76869" lon="5.30052">
        <ele>389</ele>
        <time>2013-05-04T15:10:40.000Z</time>
      </trkpt>
      <trkpt lat="47.7687" lon="5.30041">
        <ele>390</ele>
        <time>2013-05-04T15:10:48.000Z</time>
      </trkpt>
      <trkpt lat="47.76871" lon="5.30038">
        <ele>390</ele>
        <time>2013-05-04T15:10:50.000Z</time>
      </trkpt>
      <trkpt lat="47.76874" lon="5.30034">
        <ele>390</ele>
        <time>2013-05-04T15:10:53.000Z</time>
      </trkpt>
      <trkpt lat="47.76876" lon="5.3003">
        <ele>391</ele>
        <time>2013-05-04T15:10:58.000Z</time>
      </trkpt>
      <trkpt lat="47.76876" lon="5.30025">
        <ele>391</ele>
        <time>2013-05-04T15:11:01.000Z</time>
      </trkpt>
      <trkpt lat="47.76877" lon="5.30022">
        <ele>391</ele>
        <time>2013-05-04T15:11:04.000Z</time>
      </trkpt>
      <trkpt lat="47.76879" lon="5.30018">
        <ele>391</ele>
        <time>2013-05-04T15:11:07.000Z</time>
      </trkpt>
      <trkpt lat="47.7688" lon="5.30014">
        <ele>392</ele>
        <time>2013-05-04T15:11:09.000Z</time>
      </trkpt>
      <trkpt lat="47.76884" lon="5.29997">
        <ele>393</ele>
        <time>2013-05-04T15:11:18.000Z</time>
      </trkpt>
      <trkpt lat="47.76889" lon="5.29984">
        <ele>394</ele>
        <time>2013-05-04T15:11:27.000Z</time>
      </trkpt>
      <trkpt lat="47.76893" lon="5.29972">
        <ele>395</ele>
        <time>2013-05-04T15:11:36.000Z</time>
      </trkpt>
      <trkpt lat="47.76897" lon="5.29962">
        <ele>396</ele>
        <time>2013-05-04T15:11:43.000Z</time>
      </trkpt>
      <trkpt lat="47.76897" lon="5.29958">
        <ele>396</ele>
        <time>2013-05-04T15:11:45.000Z</time>
      </trkpt>
      <trkpt lat="47.76899" lon="5.29951">
        <ele>397</ele>
        <time>2013-05-04T15:11:50.000Z</time>
      </trkpt>
      <trkpt lat="47.76899" lon="5.29946">
        <ele>397</ele>
        <time>2013-05-04T15:11:53.000Z</time>
      </trkpt>
      <trkpt lat="47.76902" lon="5.29933">
        <ele>398</ele>
        <time>2013-05-04T15:12:01.000Z</time>
      </trkpt>
      <trkpt lat="47.76906" lon="5.2992">
        <ele>399</ele>
        <time>2013-05-04T15:12:10.000Z</time>
      </trkpt>
      <trkpt lat="47.76907" lon="5.29919">
        <ele>399</ele>
        <time>2013-05-04T15:12:12.000Z</time>
      </trkpt>
      <trkpt lat="47.7691" lon="5.2991">
        <ele>400</ele>
        <time>2013-05-04T15:12:17.000Z</time>
      </trkpt>
      <trkpt lat="47.76913" lon="5.29902">
        <ele>400</ele>
        <time>2013-05-04T15:12:23.000Z</time>
      </trkpt>
      <trkpt lat="47.76913" lon="5.29896">
        <ele>400</ele>
        <time>2013-05-04T15:12:26.000Z</time>
      </trkpt>
      <trkpt lat="47.76915" lon="5.29887">
        <ele>401</ele>
        <time>2013-05-04T15:12:31.000Z</time>
      </trkpt>
      <trkpt lat="47.76918" lon="5.29883">
        <ele>401</ele>
        <time>2013-05-04T15:12:34.000Z</time>
      </trkpt>
      <trkpt lat="47.7692" lon="5.2988">
        <ele>401</ele>
        <time>2013-05-04T15:12:36.000Z</time>
      </trkpt>
      <trkpt lat="47.76924" lon="5.29878">
        <ele>401</ele>
        <time>2013-05-04T15:12:39.000Z</time>
      </trkpt>
      <trkpt lat="47.76924" lon="5.29877">
        <ele>402</ele>
        <time>2013-05-04T15:12:41.000Z</time>
      </trkpt>
      <trkpt lat="47.76928" lon="5.29873">
        <ele>402</ele>
        <time>2013-05-04T15:12:44.000Z</time>
      </trkpt>
      <trkpt lat="47.76931" lon="5.29872">
        <ele>403</ele>
        <time>2013-05-04T15:12:47.000Z</time>
      </trkpt>
      <trkpt lat="47.76936" lon="5.29874">
        <ele>403</ele>
        <time>2013-05-04T15:12:53.000Z</time>
      </trkpt>
      <trkpt lat="47.76938" lon="5.29878">
        <ele>404</ele>
        <time>2013-05-04T15:12:56.000Z</time>
      </trkpt>
      <trkpt lat="47.76938" lon="5.29883">
        <ele>404</ele>
        <time>2013-05-04T15:12:59.000Z</time>
      </trkpt>
      <trkpt lat="47.76939" lon="5.29886">
        <ele>405</ele>
        <time>2013-05-04T15:13:01.000Z</time>
      </trkpt>
      <trkpt lat="47.7694" lon="5.29892">
        <ele>405</ele>
        <time>2013-05-04T15:13:04.000Z</time>
      </trkpt>
      <trkpt lat="47.76941" lon="5.29901">
        <ele>405</ele>
        <time>2013-05-04T15:13:09.000Z</time>
      </trkpt>
      <trkpt lat="47.76941" lon="5.29904">
        <ele>405</ele>
        <time>2013-05-04T15:13:11.000Z</time>
      </trkpt>
      <trkpt lat="47.76942" lon="5.29911">
        <ele>406</ele>
        <time>2013-05-04T15:13:14.000Z</time>
      </trkpt>
      <trkpt lat="47.76942" lon="5.29917">
        <ele>406</ele>
        <time>2013-05-04T15:13:17.000Z</time>
      </trkpt>
      <trkpt lat="47.76941" lon="5.29928">
        <ele>405</ele>
        <time>2013-05-04T15:13:24.000Z</time>
      </trkpt>
      <trkpt lat="47.76941" lon="5.29946">
        <ele>404</ele>
        <time>2013-05-04T15:13:35.000Z</time>
      </trkpt>
      <trkpt lat="47.76941" lon="5.29948">
        <ele>404</ele>
        <time>2013-05-04T15:13:37.000Z</time>
      </trkpt>
      <trkpt lat="47.76941" lon="5.29951">
        <ele>404</ele>
        <time>2013-05-04T15:13:39.000Z</time>
      </trkpt>
      <trkpt lat="47.76942" lon="5.29955">
        <ele>404</ele>
        <time>2013-05-04T15:13:42.000Z</time>
      </trkpt>
      <trkpt lat="47.76944" lon="5.2997">
        <ele>403</ele>
        <time>2013-05-04T15:13:51.000Z</time>
      </trkpt>
      <trkpt lat="47.7695" lon="5.29992">
        <ele>403</ele>
        <time>2013-05-04T15:14:03.000Z</time>
      </trkpt>
      <trkpt lat="47.76952" lon="5.29996">
        <ele>403</ele>
        <time>2013-05-04T15:14:06.000Z</time>
      </trkpt>
      <trkpt lat="47.76957" lon="5.30007">
        <ele>404</ele>
        <time>2013-05-04T15:14:13.000Z</time>
      </trkpt>
      <trkpt lat="47.76972" lon="5.3003">
        <ele>404</ele>
        <time>2013-05-04T15:14:38.000Z</time>
      </trkpt>
      <trkpt lat="47.76974" lon="5.30033">
        <ele>405</ele>
        <time>2013-05-04T15:14:41.000Z</time>
      </trkpt>
      <trkpt lat="47.76976" lon="5.30034">
        <ele>405</ele>
        <time>2013-05-04T15:14:44.000Z</time>
      </trkpt>
      <trkpt lat="47.7698" lon="5.30038">
        <ele>405</ele>
        <time>2013-05-04T15:14:48.000Z</time>
      </trkpt>
      <trkpt lat="47.76983" lon="5.3004">
        <ele>405</ele>
        <time>2013-05-04T15:14:50.000Z</time>
      </trkpt>
      <trkpt lat="47.76986" lon="5.30042">
        <ele>406</ele>
        <time>2013-05-04T15:14:52.000Z</time>
      </trkpt>
      <trkpt lat="47.76987" lon="5.30045">
        <ele>406</ele>
        <time>2013-05-04T15:14:54.000Z</time>
      </trkpt>
      <trkpt lat="47.76989" lon="5.30045">
        <ele>406</ele>
        <time>2013-05-04T15:14:56.000Z</time>
      </trkpt>
      <trkpt lat="47.76992" lon="5.30048">
        <ele>406</ele>
        <time>2013-05-04T15:14:59.000Z</time>
      </trkpt>
      <trkpt lat="47.76995" lon="5.30051">
        <ele>407</ele>
        <time>2013-05-04T15:15:02.000Z</time>
      </trkpt>
      <trkpt lat="47.76997" lon="5.30053">
        <ele>407</ele>
        <time>2013-05-04T15:15:04.000Z</time>
      </trkpt>
      <trkpt lat="47.76998" lon="5.30055">
        <ele>407</ele>
        <time>2013-05-04T15:15:06.000Z</time>
      </trkpt>
      <trkpt lat="47.77001" lon="5.30057">
        <ele>407</ele>
        <time>2013-05-04T15:15:09.000Z</time>
      </trkpt>
      <trkpt lat="47.77003" lon="5.30058">
        <ele>407</ele>
        <time>2013-05-04T15:15:11.000Z</time>
      </trkpt>
      <trkpt lat="47.77004" lon="5.3006">
        <ele>408</ele>
        <time>2013-05-04T15:15:13.000Z</time>
      </trkpt>
      <trkpt lat="47.77006" lon="5.30062">
        <ele>408</ele>
        <time>2013-05-04T15:15:16.000Z</time>
      </trkpt>
      <trkpt lat="47.77009" lon="5.30066">
        <ele>408</ele>
        <time>2013-05-04T15:15:19.000Z</time>
      </trkpt>
      <trkpt lat="47.77014" lon="5.30071">
        <ele>407</ele>
        <time>2013-05-04T15:15:25.000Z</time>
      </trkpt>
      <trkpt lat="47.77025" lon="5.30079">
        <ele>407</ele>
        <time>2013-05-04T15:15:35.000Z</time>
      </trkpt>
      <trkpt lat="47.77029" lon="5.30081">
        <ele>407</ele>
        <time>2013-05-04T15:15:37.000Z</time>
      </trkpt>
      <trkpt lat="47.77031" lon="5.30083">
        <ele>407</ele>
        <time>2013-05-04T15:15:40.000Z</time>
      </trkpt>
      <trkpt lat="47.77034" lon="5.30085">
        <ele>407</ele>
        <time>2013-05-04T15:15:44.000Z</time>
      </trkpt>
      <trkpt lat="47.77041" lon="5.30089">
        <ele>407</ele>
        <time>2013-05-04T15:15:49.000Z</time>
      </trkpt>
      <trkpt lat="47.77045" lon="5.30092">
        <ele>407</ele>
        <time>2013-05-04T15:15:52.000Z</time>
      </trkpt>
      <trkpt lat="47.7705" lon="5.301">
        <ele>407</ele>
        <time>2013-05-04T15:16:00.000Z</time>
      </trkpt>
      <trkpt lat="47.77051" lon="5.30107">
        <ele>407</ele>
        <time>2013-05-04T15:16:04.000Z</time>
      </trkpt>
      <trkpt lat="47.77053" lon="5.30109">
        <ele>406</ele>
        <time>2013-05-04T15:16:08.000Z</time>
      </trkpt>
      <trkpt lat="47.77054" lon="5.3011">
        <ele>406</ele>
        <time>2013-05-04T15:16:11.000Z</time>
      </trkpt>
      <trkpt lat="47.77065" lon="5.30118">
        <ele>405</ele>
        <time>2013-05-04T15:16:22.000Z</time>
      </trkpt>
      <trkpt lat="47.77068" lon="5.30119">
        <ele>405</ele>
        <time>2013-05-04T15:16:24.000Z</time>
      </trkpt>
      <trkpt lat="47.77078" lon="5.30123">
        <ele>405</ele>
        <time>2013-05-04T15:16:35.000Z</time>
      </trkpt>
      <trkpt lat="47.77089" lon="5.3013">
        <ele>405</ele>
        <time>2013-05-04T15:16:44.000Z</time>
      </trkpt>
      <trkpt lat="47.77101" lon="5.30135">
        <ele>404</ele>
        <time>2013-05-04T15:16:53.000Z</time>
      </trkpt>
      <trkpt lat="47.77105" lon="5.30136">
        <ele>404</ele>
        <time>2013-05-04T15:16:56.000Z</time>
      </trkpt>
      <trkpt lat="47.77106" lon="5.30137">
        <ele>403</ele>
        <time>2013-05-04T15:16:58.000Z</time>
      </trkpt>
      <trkpt lat="47.77108" lon="5.30137">
        <ele>403</ele>
        <time>2013-05-04T15:17:00.000Z</time>
      </trkpt>
      <trkpt lat="47.77111" lon="5.30136">
        <ele>403</ele>
        <time>2013-05-04T15:17:03.000Z</time>
      </trkpt>
      <trkpt lat="47.77121" lon="5.30133">
        <ele>402</ele>
        <time>2013-05-04T15:17:14.000Z</time>
      </trkpt>
      <trkpt lat="47.77125" lon="5.30131">
        <ele>402</ele>
        <time>2013-05-04T15:17:17.000Z</time>
      </trkpt>
      <trkpt lat="47.77129" lon="5.3013">
        <ele>402</ele>
        <time>2013-05-04T15:17:20.000Z</time>
      </trkpt>
      <trkpt lat="47.77135" lon="5.30128">
        <ele>402</ele>
        <time>2013-05-04T15:17:27.000Z</time>
      </trkpt>
      <trkpt lat="47.77155" lon="5.30116">
        <ele>403</ele>
        <time>2013-05-04T15:17:46.000Z</time>
      </trkpt>
      <trkpt lat="47.77157" lon="5.30114">
        <ele>403</ele>
        <time>2013-05-04T15:17:49.000Z</time>
      </trkpt>
      <trkpt lat="47.77163" lon="5.30112">
        <ele>403</ele>
        <time>2013-05-04T15:17:52.000Z</time>
      </trkpt>
      <trkpt lat="47.77165" lon="5.30111">
        <ele>403</ele>
        <time>2013-05-04T15:17:55.000Z</time>
      </trkpt>
      <trkpt lat="47.77168" lon="5.30107">
        <ele>403</ele>
        <time>2013-05-04T15:17:57.000Z</time>
      </trkpt>
      <trkpt lat="47.77171" lon="5.30105">
        <ele>403</ele>
        <time>2013-05-04T15:18:00.000Z</time>
      </trkpt>
      <trkpt lat="47.77174" lon="5.30104">
        <ele>403</ele>
        <time>2013-05-04T15:18:03.000Z</time>
      </trkpt>
      <trkpt lat="47.77185" lon="5.301">
        <ele>402</ele>
        <time>2013-05-04T15:18:13.000Z</time>
      </trkpt>
      <trkpt lat="47.77187" lon="5.30098">
        <ele>402</ele>
        <time>2013-05-04T15:18:16.000Z</time>
      </trkpt>
      <trkpt lat="47.77192" lon="5.30094">
        <ele>402</ele>
        <time>2013-05-04T15:18:21.000Z</time>
      </trkpt>
      <trkpt lat="47.77214" lon="5.30077">
        <ele>402</ele>
        <time>2013-05-04T15:18:44.000Z</time>
      </trkpt>
      <trkpt lat="47.77217" lon="5.30077">
        <ele>402</ele>
        <time>2013-05-04T15:18:46.000Z</time>
      </trkpt>
      <trkpt lat="47.77219" lon="5.30074">
        <ele>402</ele>
        <time>2013-05-04T15:18:49.000Z</time>
      </trkpt>
      <trkpt lat="47.77221" lon="5.30071">
        <ele>402</ele>
        <time>2013-05-04T15:18:52.000Z</time>
      </trkpt>
      <trkpt lat="47.77241" lon="5.30049">
        <ele>402</ele>
        <time>2013-05-04T15:19:14.000Z</time>
      </trkpt>
      <trkpt lat="47.77246" lon="5.30045">
        <ele>401</ele>
        <time>2013-05-04T15:19:19.000Z</time>
      </trkpt>
      <trkpt lat="47.77248" lon="5.30042">
        <ele>401</ele>
        <time>2013-05-04T15:19:21.000Z</time>
      </trkpt>
      <trkpt lat="47.7725" lon="5.3004">
        <ele>401</ele>
        <time>2013-05-04T15:19:23.000Z</time>
      </trkpt>
      <trkpt lat="47.77256" lon="5.30036">
        <ele>401</ele>
        <time>2013-05-04T15:19:28.000Z</time>
      </trkpt>
      <trkpt lat="47.77259" lon="5.30033">
        <ele>401</ele>
        <time>2013-05-04T15:19:31.000Z</time>
      </trkpt>
      <trkpt lat="47.77262" lon="5.30029">
        <ele>401</ele>
        <time>2013-05-04T15:19:34.000Z</time>
      </trkpt>
      <trkpt lat="47.77264" lon="5.30027">
        <ele>400</ele>
        <time>2013-05-04T15:19:36.000Z</time>
      </trkpt>
      <trkpt lat="47.77266" lon="5.30025">
        <ele>400</ele>
        <time>2013-05-04T15:19:38.000Z</time>
      </trkpt>
      <trkpt lat="47.77269" lon="5.30021">
        <ele>400</ele>
        <time>2013-05-04T15:19:41.000Z</time>
      </trkpt>
      <trkpt lat="47.77278" lon="5.30013">
        <ele>400</ele>
        <time>2013-05-04T15:19:53.000Z</time>
      </trkpt>
      <trkpt lat="47.77286" lon="5.30004">
        <ele>400</ele>
        <time>2013-05-04T15:20:02.000Z</time>
      </trkpt>
      <trkpt lat="47.77288" lon="5.30001">
        <ele>399</ele>
        <time>2013-05-04T15:20:05.000Z</time>
      </trkpt>
      <trkpt lat="47.77291" lon="5.30001">
        <ele>399</ele>
        <time>2013-05-04T15:20:07.000Z</time>
      </trkpt>
      <trkpt lat="47.77293" lon="5.3">
        <ele>399</ele>
        <time>2013-05-04T15:20:10.000Z</time>
      </trkpt>
      <trkpt lat="47.77296" lon="5.29998">
        <ele>399</ele>
        <time>2013-05-04T15:20:13.000Z</time>
      </trkpt>
      <trkpt lat="47.77299" lon="5.29997">
        <ele>399</ele>
        <time>2013-05-04T15:20:15.000Z</time>
      </trkpt>
      <trkpt lat="47.77306" lon="5.29992">
        <ele>399</ele>
        <time>2013-05-04T15:20:20.000Z</time>
      </trkpt>
      <trkpt lat="47.77308" lon="5.2999">
        <ele>398</ele>
        <time>2013-05-04T15:20:23.000Z</time>
      </trkpt>
      <trkpt lat="47.77316" lon="5.2998">
        <ele>399</ele>
        <time>2013-05-04T15:20:32.000Z</time>
      </trkpt>
      <trkpt lat="47.77345" lon="5.2995">
        <ele>399</ele>
        <time>2013-05-04T15:21:04.000Z</time>
      </trkpt>
      <trkpt lat="47.77346" lon="5.29948">
        <ele>399</ele>
        <time>2013-05-04T15:21:06.000Z</time>
      </trkpt>
      <trkpt lat="47.77348" lon="5.29947">
        <ele>398</ele>
        <time>2013-05-04T15:21:08.000Z</time>
      </trkpt>
      <trkpt lat="47.77351" lon="5.29945">
        <ele>398</ele>
        <time>2013-05-04T15:21:11.000Z</time>
      </trkpt>
      <trkpt lat="47.77358" lon="5.2994">
        <ele>398</ele>
        <time>2013-05-04T15:21:19.000Z</time>
      </trkpt>
      <trkpt lat="47.77361" lon="5.29937">
        <ele>398</ele>
        <time>2013-05-04T15:21:22.000Z</time>
      </trkpt>
      <trkpt lat="47.77364" lon="5.29934">
        <ele>397</ele>
        <time>2013-05-04T15:21:25.000Z</time>
      </trkpt>
      <trkpt lat="47.77367" lon="5.29932">
        <ele>397</ele>
        <time>2013-05-04T15:21:28.000Z</time>
      </trkpt>
      <trkpt lat="47.77372" lon="5.29928">
        <ele>397</ele>
        <time>2013-05-04T15:21:33.000Z</time>
      </trkpt>
      <trkpt lat="47.77382" lon="5.29919">
        <ele>396</ele>
        <time>2013-05-04T15:21:44.000Z</time>
      </trkpt>
      <trkpt lat="47.77384" lon="5.29918">
        <ele>396</ele>
        <time>2013-05-04T15:21:46.000Z</time>
      </trkpt>
      <trkpt lat="47.77385" lon="5.29917">
        <ele>396</ele>
        <time>2013-05-04T15:21:49.000Z</time>
      </trkpt>
      <trkpt lat="47.77388" lon="5.29913">
        <ele>396</ele>
        <time>2013-05-04T15:21:51.000Z</time>
      </trkpt>
      <trkpt lat="47.77392" lon="5.29909">
        <ele>396</ele>
        <time>2013-05-04T15:21:55.000Z</time>
      </trkpt>
      <trkpt lat="47.77397" lon="5.29907">
        <ele>395</ele>
        <time>2013-05-04T15:21:58.000Z</time>
      </trkpt>
      <trkpt lat="47.774" lon="5.29904">
        <ele>395</ele>
        <time>2013-05-04T15:22:01.000Z</time>
      </trkpt>
      <trkpt lat="47.77402" lon="5.299">
        <ele>395</ele>
        <time>2013-05-04T15:22:04.000Z</time>
      </trkpt>
      <trkpt lat="47.77406" lon="5.29897">
        <ele>394</ele>
        <time>2013-05-04T15:22:07.000Z</time>
      </trkpt>
      <trkpt lat="47.77415" lon="5.2989">
        <ele>393</ele>
        <time>2013-05-04T15:22:16.000Z</time>
      </trkpt>
      <trkpt lat="47.77423" lon="5.29884">
        <ele>392</ele>
        <time>2013-05-04T15:22:23.000Z</time>
      </trkpt>
      <trkpt lat="47.77425" lon="5.29883">
        <ele>392</ele>
        <time>2013-05-04T15:22:25.000Z</time>
      </trkpt>
      <trkpt lat="47.77427" lon="5.29882">
        <ele>392</ele>
        <time>2013-05-04T15:22:27.000Z</time>
      </trkpt>
      <trkpt lat="47.77429" lon="5.29881">
        <ele>391</ele>
        <time>2013-05-04T15:22:30.000Z</time>
      </trkpt>
      <trkpt lat="47.77431" lon="5.2988">
        <ele>391</ele>
        <time>2013-05-04T15:22:33.000Z</time>
      </trkpt>
      <trkpt lat="47.77433" lon="5.29878">
        <ele>391</ele>
        <time>2013-05-04T15:22:35.000Z</time>
      </trkpt>
      <trkpt lat="47.77434" lon="5.29878">
        <ele>391</ele>
        <time>2013-05-04T15:22:37.000Z</time>
      </trkpt>
      <trkpt lat="47.77435" lon="5.29876">
        <ele>391</ele>
        <time>2013-05-04T15:22:39.000Z</time>
      </trkpt>
      <trkpt lat="47.77437" lon="5.29874">
        <ele>390</ele>
        <time>2013-05-04T15:22:42.000Z</time>
      </trkpt>
      <trkpt lat="47.77444" lon="5.29867">
        <ele>390</ele>
        <time>2013-05-04T15:22:48.000Z</time>
      </trkpt>
      <trkpt lat="47.77448" lon="5.29865">
        <ele>390</ele>
        <time>2013-05-04T15:22:50.000Z</time>
      </trkpt>
      <trkpt lat="47.7745" lon="5.29864">
        <ele>389</ele>
        <time>2013-05-04T15:22:53.000Z</time>
      </trkpt>
      <trkpt lat="47.77453" lon="5.29861">
        <ele>389</ele>
        <time>2013-05-04T15:22:56.000Z</time>
      </trkpt>
      <trkpt lat="47.77455" lon="5.29858">
        <ele>389</ele>
        <time>2013-05-04T15:22:59.000Z</time>
      </trkpt>
      <trkpt lat="47.77457" lon="5.29854">
        <ele>389</ele>
        <time>2013-05-04T15:23:02.000Z</time>
      </trkpt>
      <trkpt lat="47.77464" lon="5.29846">
        <ele>388</ele>
        <time>2013-05-04T15:23:08.000Z</time>
      </trkpt>
      <trkpt lat="47.77467" lon="5.29844">
        <ele>388</ele>
        <time>2013-05-04T15:23:11.000Z</time>
      </trkpt>
      <trkpt lat="47.77468" lon="5.29841">
        <ele>388</ele>
        <time>2013-05-04T15:23:13.000Z</time>
      </trkpt>
      <trkpt lat="47.77476" lon="5.29833">
        <ele>387</ele>
        <time>2013-05-04T15:23:23.000Z</time>
      </trkpt>
      <trkpt lat="47.77477" lon="5.29832">
        <ele>387</ele>
        <time>2013-05-04T15:23:26.000Z</time>
      </trkpt>
      <trkpt lat="47.77479" lon="5.2983">
        <ele>387</ele>
        <time>2013-05-04T15:23:28.000Z</time>
      </trkpt>
      <trkpt lat="47.77492" lon="5.29818">
        <ele>386</ele>
        <time>2013-05-04T15:23:43.000Z</time>
      </trkpt>
      <trkpt lat="47.77499" lon="5.29811">
        <ele>386</ele>
        <time>2013-05-04T15:24:00.000Z</time>
      </trkpt>
      <trkpt lat="47.775" lon="5.2981">
        <ele>385</ele>
        <time>2013-05-04T15:24:03.000Z</time>
      </trkpt>
      <trkpt lat="47.775" lon="5.29806">
        <ele>385</ele>
        <time>2013-05-04T15:24:06.000Z</time>
      </trkpt>
      <trkpt lat="47.77502" lon="5.29802">
        <ele>385</ele>
        <time>2013-05-04T15:24:09.000Z</time>
      </trkpt>
      <trkpt lat="47.77504" lon="5.29799">
        <ele>385</ele>
        <time>2013-05-04T15:24:12.000Z</time>
      </trkpt>
      <trkpt lat="47.77506" lon="5.29797">
        <ele>385</ele>
        <time>2013-05-04T15:24:15.000Z</time>
      </trkpt>
      <trkpt lat="47.77507" lon="5.29795">
        <ele>385</ele>
        <time>2013-05-04T15:24:17.000Z</time>
      </trkpt>
      <trkpt lat="47.7751" lon="5.29793">
        <ele>385</ele>
        <time>2013-05-04T15:24:19.000Z</time>
      </trkpt>
      <trkpt lat="47.77512" lon="5.29792">
        <ele>385</ele>
        <time>2013-05-04T15:24:21.000Z</time>
      </trkpt>
      <trkpt lat="47.77518" lon="5.29789">
        <ele>385</ele>
        <time>2013-05-04T15:24:27.000Z</time>
      </trkpt>
      <trkpt lat="47.77519" lon="5.29788">
        <ele>385</ele>
        <time>2013-05-04T15:24:30.000Z</time>
      </trkpt>
      <trkpt lat="47.77523" lon="5.29785">
        <ele>385</ele>
        <time>2013-05-04T15:24:32.000Z</time>
      </trkpt>
      <trkpt lat="47.77525" lon="5.29785">
        <ele>385</ele>
        <time>2013-05-04T15:24:35.000Z</time>
      </trkpt>
      <trkpt lat="47.77527" lon="5.29785">
        <ele>384</ele>
        <time>2013-05-04T15:24:38.000Z</time>
      </trkpt>
      <trkpt lat="47.77529" lon="5.29784">
        <ele>384</ele>
        <time>2013-05-04T15:24:41.000Z</time>
      </trkpt>
      <trkpt lat="47.7753" lon="5.29781">
        <ele>384</ele>
        <time>2013-05-04T15:24:44.000Z</time>
      </trkpt>
      <trkpt lat="47.77531" lon="5.2978">
        <ele>384</ele>
        <time>2013-05-04T15:24:47.000Z</time>
      </trkpt>
      <trkpt lat="47.7754" lon="5.29771">
        <ele>384</ele>
        <time>2013-05-04T15:25:01.000Z</time>
      </trkpt>
      <trkpt lat="47.77541" lon="5.2977">
        <ele>384</ele>
        <time>2013-05-04T15:25:03.000Z</time>
      </trkpt>
      <trkpt lat="47.77558" lon="5.29756">
        <ele>383</ele>
        <time>2013-05-04T15:25:24.000Z</time>
      </trkpt>
      <trkpt lat="47.7756" lon="5.29753">
        <ele>383</ele>
        <time>2013-05-04T15:25:27.000Z</time>
      </trkpt>
      <trkpt lat="47.77571" lon="5.29744">
        <ele>383</ele>
        <time>2013-05-04T15:25:37.000Z</time>
      </trkpt>
      <trkpt lat="47.77573" lon="5.29742">
        <ele>383</ele>
        <time>2013-05-04T15:25:39.000Z</time>
      </trkpt>
      <trkpt lat="47.77576" lon="5.29741">
        <ele>383</ele>
        <time>2013-05-04T15:25:41.000Z</time>
      </trkpt>
      <trkpt lat="47.77579" lon="5.29738">
        <ele>383</ele>
        <time>2013-05-04T15:25:44.000Z</time>
      </trkpt>
      <trkpt lat="47.77581" lon="5.29735">
        <ele>383</ele>
        <time>2013-05-04T15:25:47.000Z</time>
      </trkpt>
      <trkpt lat="47.77583" lon="5.29734">
        <ele>383</ele>
        <time>2013-05-04T15:25:49.000Z</time>
      </trkpt>
      <trkpt lat="47.77588" lon="5.29731">
        <ele>383</ele>
        <time>2013-05-04T15:25:52.000Z</time>
      </trkpt>
      <trkpt lat="47.7762" lon="5.29704">
        <ele>383</ele>
        <time>2013-05-04T15:26:22.000Z</time>
      </trkpt>
      <trkpt lat="47.77622" lon="5.29701">
        <ele>383</ele>
        <time>2013-05-04T15:26:25.000Z</time>
      </trkpt>
      <trkpt lat="47.77624" lon="5.297">
        <ele>383</ele>
        <time>2013-05-04T15:26:27.000Z</time>
      </trkpt>
      <trkpt lat="47.77636" lon="5.29692">
        <ele>383</ele>
        <time>2013-05-04T15:26:41.000Z</time>
      </trkpt>
      <trkpt lat="47.77669" lon="5.29672">
        <ele>383</ele>
        <time>2013-05-04T15:27:11.000Z</time>
      </trkpt>
      <trkpt lat="47.77673" lon="5.29672">
        <ele>383</ele>
        <time>2013-05-04T15:27:14.000Z</time>
      </trkpt>
      <trkpt lat="47.77679" lon="5.29669">
        <ele>383</ele>
        <time>2013-05-04T15:27:21.000Z</time>
      </trkpt>
      <trkpt lat="47.77688" lon="5.29664">
        <ele>383</ele>
        <time>2013-05-04T15:27:29.000Z</time>
      </trkpt>
      <trkpt lat="47.77691" lon="5.29661">
        <ele>383</ele>
        <time>2013-05-04T15:27:32.000Z</time>
      </trkpt>
      <trkpt lat="47.77692" lon="5.29658">
        <ele>383</ele>
        <time>2013-05-04T15:27:35.000Z</time>
      </trkpt>
      <trkpt lat="47.77695" lon="5.29656">
        <ele>383</ele>
        <time>2013-05-04T15:27:38.000Z</time>
      </trkpt>
      <trkpt lat="47.77698" lon="5.29654">
        <ele>383</ele>
        <time>2013-05-04T15:27:41.000Z</time>
      </trkpt>
      <trkpt lat="47.77706" lon="5.29647">
        <ele>384</ele>
        <time>2013-05-04T15:27:47.000Z</time>
      </trkpt>
      <trkpt lat="47.77709" lon="5.29645">
        <ele>384</ele>
        <time>2013-05-04T15:27:49.000Z</time>
      </trkpt>
      <trkpt lat="47.77712" lon="5.29643">
        <ele>384</ele>
        <time>2013-05-04T15:27:52.000Z</time>
      </trkpt>
      <trkpt lat="47.77714" lon="5.29644">
        <ele>384</ele>
        <time>2013-05-04T15:27:54.000Z</time>
      </trkpt>
      <trkpt lat="47.77717" lon="5.29641">
        <ele>384</ele>
        <time>2013-05-04T15:27:57.000Z</time>
      </trkpt>
      <trkpt lat="47.77728" lon="5.29633">
        <ele>384</ele>
        <time>2013-05-04T15:28:09.000Z</time>
      </trkpt>
      <trkpt lat="47.7773" lon="5.29629">
        <ele>385</ele>
        <time>2013-05-04T15:28:12.000Z</time>
      </trkpt>
      <trkpt lat="47.77732" lon="5.29627">
        <ele>385</ele>
        <time>2013-05-04T15:28:14.000Z</time>
      </trkpt>
      <trkpt lat="47.77739" lon="5.2962">
        <ele>385</ele>
        <time>2013-05-04T15:28:23.000Z</time>
      </trkpt>
      <trkpt lat="47.7774" lon="5.29618">
        <ele>385</ele>
        <time>2013-05-04T15:28:26.000Z</time>
      </trkpt>
      <trkpt lat="47.77742" lon="5.29615">
        <ele>385</ele>
        <time>2013-05-04T15:28:29.000Z</time>
      </trkpt>
      <trkpt lat="47.77746" lon="5.29613">
        <ele>386</ele>
        <time>2013-05-04T15:28:32.000Z</time>
      </trkpt>
      <trkpt lat="47.77748" lon="5.29612">
        <ele>386</ele>
        <time>2013-05-04T15:28:34.000Z</time>
      </trkpt>
      <trkpt lat="47.7776" lon="5.29607">
        <ele>385</ele>
        <time>2013-05-04T15:28:47.000Z</time>
      </trkpt>
      <trkpt lat="47.77763" lon="5.29604">
        <ele>385</ele>
        <time>2013-05-04T15:28:50.000Z</time>
      </trkpt>
      <trkpt lat="47.77765" lon="5.29601">
        <ele>385</ele>
        <time>2013-05-04T15:28:53.000Z</time>
      </trkpt>
      <trkpt lat="47.77767" lon="5.29598">
        <ele>385</ele>
        <time>2013-05-04T15:28:55.000Z</time>
      </trkpt>
      <trkpt lat="47.77772" lon="5.29595">
        <ele>385</ele>
        <time>2013-05-04T15:29:01.000Z</time>
      </trkpt>
      <trkpt lat="47.77804" lon="5.29579">
        <ele>385</ele>
        <time>2013-05-04T15:29:28.000Z</time>
      </trkpt>
      <trkpt lat="47.77806" lon="5.2958">
        <ele>385</ele>
        <time>2013-05-04T15:29:31.000Z</time>
      </trkpt>
      <trkpt lat="47.77811" lon="5.2958">
        <ele>385</ele>
        <time>2013-05-04T15:29:34.000Z</time>
      </trkpt>
      <trkpt lat="47.77816" lon="5.29579">
        <ele>384</ele>
        <time>2013-05-04T15:29:37.000Z</time>
      </trkpt>
      <trkpt lat="47.77819" lon="5.29579">
        <ele>384</ele>
        <time>2013-05-04T15:29:39.000Z</time>
      </trkpt>
      <trkpt lat="47.77822" lon="5.29579">
        <ele>384</ele>
        <time>2013-05-04T15:29:41.000Z</time>
      </trkpt>
      <trkpt lat="47.77824" lon="5.29579">
        <ele>384</ele>
        <time>2013-05-04T15:29:43.000Z</time>
      </trkpt>
      <trkpt lat="47.77829" lon="5.29579">
        <ele>383</ele>
        <time>2013-05-04T15:29:46.000Z</time>
      </trkpt>
      <trkpt lat="47.77839" lon="5.29581">
        <ele>382</ele>
        <time>2013-05-04T15:29:55.000Z</time>
      </trkpt>
      <trkpt lat="47.77842" lon="5.2958">
        <ele>382</ele>
        <time>2013-05-04T15:29:58.000Z</time>
      </trkpt>
      <trkpt lat="47.77843" lon="5.2958">
        <ele>382</ele>
        <time>2013-05-04T15:30:00.000Z</time>
      </trkpt>
      <trkpt lat="47.77852" lon="5.29579">
        <ele>381</ele>
        <time>2013-05-04T15:30:07.000Z</time>
      </trkpt>
      <trkpt lat="47.77856" lon="5.29579">
        <ele>381</ele>
        <time>2013-05-04T15:30:10.000Z</time>
      </trkpt>
      <trkpt lat="47.77869" lon="5.29578">
        <ele>380</ele>
        <time>2013-05-04T15:30:21.000Z</time>
      </trkpt>
      <trkpt lat="47.77871" lon="5.29578">
        <ele>380</ele>
        <time>2013-05-04T15:30:23.000Z</time>
      </trkpt>
      <trkpt lat="47.77875" lon="5.29578">
        <ele>380</ele>
        <time>2013-05-04T15:30:26.000Z</time>
      </trkpt>
      <trkpt lat="47.77878" lon="5.29578">
        <ele>380</ele>
        <time>2013-05-04T15:30:28.000Z</time>
      </trkpt>
      <trkpt lat="47.77884" lon="5.29577">
        <ele>379</ele>
        <time>2013-05-04T15:30:33.000Z</time>
      </trkpt>
      <trkpt lat="47.77887" lon="5.29577">
        <ele>379</ele>
        <time>2013-05-04T15:30:36.000Z</time>
      </trkpt>
      <trkpt lat="47.77895" lon="5.29577">
        <ele>379</ele>
        <time>2013-05-04T15:30:45.000Z</time>
      </trkpt>
      <trkpt lat="47.77898" lon="5.29578">
        <ele>378</ele>
        <time>2013-05-04T15:30:48.000Z</time>
      </trkpt>
      <trkpt lat="47.77902" lon="5.29577">
        <ele>378</ele>
        <time>2013-05-04T15:30:51.000Z</time>
      </trkpt>
      <trkpt lat="47.77906" lon="5.29577">
        <ele>378</ele>
        <time>2013-05-04T15:30:54.000Z</time>
      </trkpt>
      <trkpt lat="47.77913" lon="5.29578">
        <ele>377</ele>
        <time>2013-05-04T15:31:00.000Z</time>
      </trkpt>
      <trkpt lat="47.77923" lon="5.29578">
        <ele>376</ele>
        <time>2013-05-04T15:31:08.000Z</time>
      </trkpt>
      <trkpt lat="47.77926" lon="5.29578">
        <ele>376</ele>
        <time>2013-05-04T15:31:11.000Z</time>
      </trkpt>
      <trkpt lat="47.7793" lon="5.29576">
        <ele>376</ele>
        <time>2013-05-04T15:31:14.000Z</time>
      </trkpt>
      <trkpt lat="47.77932" lon="5.29576">
        <ele>376</ele>
        <time>2013-05-04T15:31:17.000Z</time>
      </trkpt>
      <trkpt lat="47.77935" lon="5.29575">
        <ele>375</ele>
        <time>2013-05-04T15:31:20.000Z</time>
      </trkpt>
      <trkpt lat="47.77944" lon="5.29575">
        <ele>374</ele>
        <time>2013-05-04T15:31:28.000Z</time>
      </trkpt>
      <trkpt lat="47.77948" lon="5.29574">
        <ele>374</ele>
        <time>2013-05-04T15:31:31.000Z</time>
      </trkpt>
      <trkpt lat="47.77949" lon="5.29573">
        <ele>374</ele>
        <time>2013-05-04T15:31:33.000Z</time>
      </trkpt>
      <trkpt lat="47.77951" lon="5.29573">
        <ele>374</ele>
        <time>2013-05-04T15:31:35.000Z</time>
      </trkpt>
      <trkpt lat="47.77955" lon="5.29571">
        <ele>373</ele>
        <time>2013-05-04T15:31:38.000Z</time>
      </trkpt>
      <trkpt lat="47.77959" lon="5.29572">
        <ele>373</ele>
        <time>2013-05-04T15:31:41.000Z</time>
      </trkpt>
      <trkpt lat="47.77962" lon="5.29572">
        <ele>373</ele>
        <time>2013-05-04T15:31:43.000Z</time>
      </trkpt>
      <trkpt lat="47.77968" lon="5.29571">
        <ele>372</ele>
        <time>2013-05-04T15:31:48.000Z</time>
      </trkpt>
      <trkpt lat="47.77971" lon="5.29572">
        <ele>372</ele>
        <time>2013-05-04T15:31:51.000Z</time>
      </trkpt>
      <trkpt lat="47.77973" lon="5.2957">
        <ele>372</ele>
        <time>2013-05-04T15:31:54.000Z</time>
      </trkpt>
      <trkpt lat="47.77977" lon="5.29569">
        <ele>371</ele>
        <time>2013-05-04T15:31:57.000Z</time>
      </trkpt>
      <trkpt lat="47.77988" lon="5.29568">
        <ele>370</ele>
        <time>2013-05-04T15:32:06.000Z</time>
      </trkpt>
      <trkpt lat="47.7799" lon="5.29568">
        <ele>370</ele>
        <time>2013-05-04T15:32:08.000Z</time>
      </trkpt>
      <trkpt lat="47.77994" lon="5.29569">
        <ele>370</ele>
        <time>2013-05-04T15:32:11.000Z</time>
      </trkpt>
      <trkpt lat="47.77998" lon="5.29569">
        <ele>370</ele>
        <time>2013-05-04T15:32:14.000Z</time>
      </trkpt>
      <trkpt lat="47.78001" lon="5.29569">
        <ele>369</ele>
        <time>2013-05-04T15:32:17.000Z</time>
      </trkpt>
      <trkpt lat="47.78004" lon="5.29569">
        <ele>369</ele>
        <time>2013-05-04T15:32:19.000Z</time>
      </trkpt>
      <trkpt lat="47.78007" lon="5.2957">
        <ele>369</ele>
        <time>2013-05-04T15:32:22.000Z</time>
      </trkpt>
      <trkpt lat="47.78009" lon="5.29569">
        <ele>368</ele>
        <time>2013-05-04T15:32:24.000Z</time>
      </trkpt>
      <trkpt lat="47.78011" lon="5.29569">
        <ele>368</ele>
        <time>2013-05-04T15:32:26.000Z</time>
      </trkpt>
      <trkpt lat="47.78015" lon="5.2957">
        <ele>368</ele>
        <time>2013-05-04T15:32:29.000Z</time>
      </trkpt>
      <trkpt lat="47.78018" lon="5.2957">
        <ele>368</ele>
        <time>2013-05-04T15:32:31.000Z</time>
      </trkpt>
      <trkpt lat="47.78022" lon="5.2957">
        <ele>368</ele>
        <time>2013-05-04T15:32:34.000Z</time>
      </trkpt>
      <trkpt lat="47.78022" lon="5.2957">
        <ele>367</ele>
        <time>2013-05-04T15:32:36.000Z</time>
      </trkpt>
      <trkpt lat="47.78027" lon="5.29571">
        <ele>367</ele>
        <time>2013-05-04T15:32:38.000Z</time>
      </trkpt>
      <trkpt lat="47.7803" lon="5.29573">
        <ele>367</ele>
        <time>2013-05-04T15:32:41.000Z</time>
      </trkpt>
      <trkpt lat="47.78033" lon="5.29574">
        <ele>366</ele>
        <time>2013-05-04T15:32:45.000Z</time>
      </trkpt>
      <trkpt lat="47.78038" lon="5.29574">
        <ele>366</ele>
        <time>2013-05-04T15:32:48.000Z</time>
      </trkpt>
      <trkpt lat="47.7804" lon="5.29574">
        <ele>366</ele>
        <time>2013-05-04T15:32:51.000Z</time>
      </trkpt>
      <trkpt lat="47.78042" lon="5.29573">
        <ele>366</ele>
        <time>2013-05-04T15:32:56.000Z</time>
      </trkpt>
      <trkpt lat="47.78044" lon="5.29573">
        <ele>366</ele>
        <time>2013-05-04T15:32:59.000Z</time>
      </trkpt>
      <trkpt lat="47.78048" lon="5.29574">
        <ele>365</ele>
        <time>2013-05-04T15:33:02.000Z</time>
      </trkpt>
      <trkpt lat="47.78057" lon="5.29576">
        <ele>365</ele>
        <time>2013-05-04T15:33:13.000Z</time>
      </trkpt>
      <trkpt lat="47.7806" lon="5.29577">
        <ele>364</ele>
        <time>2013-05-04T15:33:15.000Z</time>
      </trkpt>
      <trkpt lat="47.78062" lon="5.29578">
        <ele>364</ele>
        <time>2013-05-04T15:33:18.000Z</time>
      </trkpt>
      <trkpt lat="47.78064" lon="5.29578">
        <ele>364</ele>
        <time>2013-05-04T15:33:21.000Z</time>
      </trkpt>
      <trkpt lat="47.78068" lon="5.29578">
        <ele>364</ele>
        <time>2013-05-04T15:33:24.000Z</time>
      </trkpt>
      <trkpt lat="47.78072" lon="5.29578">
        <ele>364</ele>
        <time>2013-05-04T15:33:27.000Z</time>
      </trkpt>
      <trkpt lat="47.78076" lon="5.29577">
        <ele>363</ele>
        <time>2013-05-04T15:33:33.000Z</time>
      </trkpt>
      <trkpt lat="47.78078" lon="5.29578">
        <ele>363</ele>
        <time>2013-05-04T15:33:36.000Z</time>
      </trkpt>
      <trkpt lat="47.7808" lon="5.2958">
        <ele>363</ele>
        <time>2013-05-04T15:33:39.000Z</time>
      </trkpt>
      <trkpt lat="47.78082" lon="5.2958">
        <ele>363</ele>
        <time>2013-05-04T15:33:41.000Z</time>
      </trkpt>
      <trkpt lat="47.78083" lon="5.29581">
        <ele>363</ele>
        <time>2013-05-04T15:33:44.000Z</time>
      </trkpt>
      <trkpt lat="47.78085" lon="5.29581">
        <ele>362</ele>
        <time>2013-05-04T15:33:46.000Z</time>
      </trkpt>
      <trkpt lat="47.78089" lon="5.29582">
        <ele>362</ele>
        <time>2013-05-04T15:33:49.000Z</time>
      </trkpt>
      <trkpt lat="47.78094" lon="5.29584">
        <ele>362</ele>
        <time>2013-05-04T15:33:55.000Z</time>
      </trkpt>
      <trkpt lat="47.78097" lon="5.29585">
        <ele>362</ele>
        <time>2013-05-04T15:33:58.000Z</time>
      </trkpt>
      <trkpt lat="47.78098" lon="5.29584">
        <ele>362</ele>
        <time>2013-05-04T15:34:01.000Z</time>
      </trkpt>
      <trkpt lat="47.78101" lon="5.29585">
        <ele>362</ele>
        <time>2013-05-04T15:34:04.000Z</time>
      </trkpt>
      <trkpt lat="47.7811" lon="5.2959">
        <ele>362</ele>
        <time>2013-05-04T15:34:14.000Z</time>
      </trkpt>
      <trkpt lat="47.78122" lon="5.29594">
        <ele>362</ele>
        <time>2013-05-04T15:34:27.000Z</time>
      </trkpt>
      <trkpt lat="47.78127" lon="5.29594">
        <ele>362</ele>
        <time>2013-05-04T15:34:32.000Z</time>
      </trkpt>
      <trkpt lat="47.78133" lon="5.29596">
        <ele>362</ele>
        <time>2013-05-04T15:34:40.000Z</time>
      </trkpt>
      <trkpt lat="47.78138" lon="5.29597">
        <ele>362</ele>
        <time>2013-05-04T15:34:43.000Z</time>
      </trkpt>
      <trkpt lat="47.7814" lon="5.29598">
        <ele>362</ele>
        <time>2013-05-04T15:34:46.000Z</time>
      </trkpt>
      <trkpt lat="47.7815" lon="5.29602">
        <ele>362</ele>
        <time>2013-05-04T15:34:58.000Z</time>
      </trkpt>
      <trkpt lat="47.78155" lon="5.29601">
        <ele>362</ele>
        <time>2013-05-04T15:35:08.000Z</time>
      </trkpt>
      <trkpt lat="47.78168" lon="5.29602">
        <ele>362</ele>
        <time>2013-05-04T15:35:30.000Z</time>
      </trkpt>
      <trkpt lat="47.78171" lon="5.29607">
        <ele>362</ele>
        <time>2013-05-04T15:35:33.000Z</time>
      </trkpt>
      <trkpt lat="47.78173" lon="5.29607">
        <ele>362</ele>
        <time>2013-05-04T15:35:36.000Z</time>
      </trkpt>
      <trkpt lat="47.78173" lon="5.29607">
        <ele>362</ele>
        <time>2013-05-04T15:35:56.000Z</time>
      </trkpt>
      <trkpt lat="47.7818" lon="5.2961">
        <ele>361</ele>
        <time>2013-05-04T15:35:57.000Z</time>
      </trkpt>
      <trkpt lat="47.78184" lon="5.29608">
        <ele>361</ele>
        <time>2013-05-04T15:36:00.000Z</time>
      </trkpt>
      <trkpt lat="47.78188" lon="5.29606">
        <ele>361</ele>
        <time>2013-05-04T15:36:02.000Z</time>
      </trkpt>
      <trkpt lat="47.78191" lon="5.29605">
        <ele>361</ele>
        <time>2013-05-04T15:36:04.000Z</time>
      </trkpt>
      <trkpt lat="47.78192" lon="5.29606">
        <ele>361</ele>
        <time>2013-05-04T15:36:07.000Z</time>
      </trkpt>
      <trkpt lat="47.78196" lon="5.2961">
        <ele>361</ele>
        <time>2013-05-04T15:36:09.000Z</time>
      </trkpt>
      <trkpt lat="47.78198" lon="5.29611">
        <ele>361</ele>
        <time>2013-05-04T15:36:12.000Z</time>
      </trkpt>
      <trkpt lat="47.78203" lon="5.29611">
        <ele>361</ele>
        <time>2013-05-04T15:36:17.000Z</time>
      </trkpt>
      <trkpt lat="47.78215" lon="5.29609">
        <ele>361</ele>
        <time>2013-05-04T15:36:25.000Z</time>
      </trkpt>
      <trkpt lat="47.78217" lon="5.29608">
        <ele>361</ele>
        <time>2013-05-04T15:36:27.000Z</time>
      </trkpt>
      <trkpt lat="47.78221" lon="5.29606">
        <ele>361</ele>
        <time>2013-05-04T15:36:32.000Z</time>
      </trkpt>
      <trkpt lat="47.78223" lon="5.29606">
        <ele>361</ele>
        <time>2013-05-04T15:36:35.000Z</time>
      </trkpt>
      <trkpt lat="47.78226" lon="5.29604">
        <ele>361</ele>
        <time>2013-05-04T15:36:40.000Z</time>
      </trkpt>
      <trkpt lat="47.78229" lon="5.29602">
        <ele>362</ele>
        <time>2013-05-04T15:36:43.000Z</time>
      </trkpt>
      <trkpt lat="47.78234" lon="5.29604">
        <ele>362</ele>
        <time>2013-05-04T15:36:49.000Z</time>
      </trkpt>
      <trkpt lat="47.78237" lon="5.29605">
        <ele>362</ele>
        <time>2013-05-04T15:36:52.000Z</time>
      </trkpt>
      <trkpt lat="47.78238" lon="5.29604">
        <ele>362</ele>
        <time>2013-05-04T15:36:54.000Z</time>
      </trkpt>
      <trkpt lat="47.78243" lon="5.29604">
        <ele>362</ele>
        <time>2013-05-04T15:37:04.000Z</time>
      </trkpt>
      <trkpt lat="47.78246" lon="5.29605">
        <ele>362</ele>
        <time>2013-05-04T15:37:09.000Z</time>
      </trkpt>
      <trkpt lat="47.78249" lon="5.29607">
        <ele>362</ele>
        <time>2013-05-04T15:37:12.000Z</time>
      </trkpt>
      <trkpt lat="47.78254" lon="5.29607">
        <ele>362</ele>
        <time>2013-05-04T15:37:16.000Z</time>
      </trkpt>
      <trkpt lat="47.78258" lon="5.29606">
        <ele>362</ele>
        <time>2013-05-04T15:37:18.000Z</time>
      </trkpt>
      <trkpt lat="47.78263" lon="5.29607">
        <ele>361</ele>
        <time>2013-05-04T15:37:26.000Z</time>
      </trkpt>
      <trkpt lat="47.78277" lon="5.29607">
        <ele>360</ele>
        <time>2013-05-04T15:37:32.000Z</time>
      </trkpt>
      <trkpt lat="47.78282" lon="5.29605">
        <ele>359</ele>
        <time>2013-05-04T15:37:35.000Z</time>
      </trkpt>
      <trkpt lat="47.78284" lon="5.29605">
        <ele>359</ele>
        <time>2013-05-04T15:37:37.000Z</time>
      </trkpt>
      <trkpt lat="47.78287" lon="5.29604">
        <ele>358</ele>
        <time>2013-05-04T15:37:40.000Z</time>
      </trkpt>
      <trkpt lat="47.78288" lon="5.29603">
        <ele>358</ele>
        <time>2013-05-04T15:37:43.000Z</time>
      </trkpt>
      <trkpt lat="47.78291" lon="5.29603">
        <ele>358</ele>
        <time>2013-05-04T15:37:53.000Z</time>
      </trkpt>
      <trkpt lat="47.78296" lon="5.29605">
        <ele>358</ele>
        <time>2013-05-04T15:38:00.000Z</time>
      </trkpt>
      <trkpt lat="47.78301" lon="5.29607">
        <ele>357</ele>
        <time>2013-05-04T15:38:05.000Z</time>
      </trkpt>
      <trkpt lat="47.78302" lon="5.29607">
        <ele>357</ele>
        <time>2013-05-04T15:38:07.000Z</time>
      </trkpt>
      <trkpt lat="47.78307" lon="5.29613">
        <ele>356</ele>
        <time>2013-05-04T15:38:10.000Z</time>
      </trkpt>
      <trkpt lat="47.78309" lon="5.29614">
        <ele>355</ele>
        <time>2013-05-04T15:38:16.000Z</time>
      </trkpt>
      <trkpt lat="47.78314" lon="5.29613">
        <ele>354</ele>
        <time>2013-05-04T15:38:19.000Z</time>
      </trkpt>
      <trkpt lat="47.78323" lon="5.29617">
        <ele>353</ele>
        <time>2013-05-04T15:38:30.000Z</time>
      </trkpt>
      <trkpt lat="47.78328" lon="5.29621">
        <ele>352</ele>
        <time>2013-05-04T15:38:36.000Z</time>
      </trkpt>
      <trkpt lat="47.78335" lon="5.29628">
        <ele>351</ele>
        <time>2013-05-04T15:38:41.000Z</time>
      </trkpt>
      <trkpt lat="47.78339" lon="5.29633">
        <ele>350</ele>
        <time>2013-05-04T15:38:44.000Z</time>
      </trkpt>
      <trkpt lat="47.78341" lon="5.29635">
        <ele>349</ele>
        <time>2013-05-04T15:38:47.000Z</time>
      </trkpt>
      <trkpt lat="47.78343" lon="5.29637">
        <ele>348</ele>
        <time>2013-05-04T15:38:49.000Z</time>
      </trkpt>
      <trkpt lat="47.78344" lon="5.29639">
        <ele>348</ele>
        <time>2013-05-04T15:38:51.000Z</time>
      </trkpt>
      <trkpt lat="47.78344" lon="5.29641">
        <ele>347</ele>
        <time>2013-05-04T15:38:54.000Z</time>
      </trkpt>
      <trkpt lat="47.78348" lon="5.29646">
        <ele>347</ele>
        <time>2013-05-04T15:38:57.000Z</time>
      </trkpt>
      <trkpt lat="47.78351" lon="5.29648">
        <ele>347</ele>
        <time>2013-05-04T15:38:59.000Z</time>
      </trkpt>
      <trkpt lat="47.78354" lon="5.29652">
        <ele>346</ele>
        <time>2013-05-04T15:39:02.000Z</time>
      </trkpt>
      <trkpt lat="47.7836" lon="5.29656">
        <ele>345</ele>
        <time>2013-05-04T15:39:09.000Z</time>
      </trkpt>
      <trkpt lat="47.78365" lon="5.29659">
        <ele>344</ele>
        <time>2013-05-04T15:39:15.000Z</time>
      </trkpt>
      <trkpt lat="47.78366" lon="5.2966">
        <ele>344</ele>
        <time>2013-05-04T15:39:20.000Z</time>
      </trkpt>
      <trkpt lat="47.78368" lon="5.29662">
        <ele>344</ele>
        <time>2013-05-04T15:39:23.000Z</time>
      </trkpt>
      <trkpt lat="47.7837" lon="5.29662">
        <ele>344</ele>
        <time>2013-05-04T15:39:25.000Z</time>
      </trkpt>
      <trkpt lat="47.78374" lon="5.29665">
        <ele>344</ele>
        <time>2013-05-04T15:39:32.000Z</time>
      </trkpt>
      <trkpt lat="47.78377" lon="5.29667">
        <ele>343</ele>
        <time>2013-05-04T15:39:35.000Z</time>
      </trkpt>
      <trkpt lat="47.78379" lon="5.29668">
        <ele>343</ele>
        <time>2013-05-04T15:39:38.000Z</time>
      </trkpt>
      <trkpt lat="47.78386" lon="5.29676">
        <ele>343</ele>
        <time>2013-05-04T15:39:44.000Z</time>
      </trkpt>
      <trkpt lat="47.78391" lon="5.29683">
        <ele>343</ele>
        <time>2013-05-04T15:39:49.000Z</time>
      </trkpt>
      <trkpt lat="47.78392" lon="5.29687">
        <ele>343</ele>
        <time>2013-05-04T15:39:52.000Z</time>
      </trkpt>
      <trkpt lat="47.78394" lon="5.29695">
        <ele>343</ele>
        <time>2013-05-04T15:39:59.000Z</time>
      </trkpt>
      <trkpt lat="47.78396" lon="5.29698">
        <ele>344</ele>
        <time>2013-05-04T15:40:02.000Z</time>
      </trkpt>
      <trkpt lat="47.7841" lon="5.29724">
        <ele>345</ele>
        <time>2013-05-04T15:40:24.000Z</time>
      </trkpt>
      <trkpt lat="47.78412" lon="5.29725">
        <ele>345</ele>
        <time>2013-05-04T15:40:26.000Z</time>
      </trkpt>
      <trkpt lat="47.78421" lon="5.2974">
        <ele>345</ele>
        <time>2013-05-04T15:40:38.000Z</time>
      </trkpt>
      <trkpt lat="47.78422" lon="5.29741">
        <ele>345</ele>
        <time>2013-05-04T15:40:40.000Z</time>
      </trkpt>
      <trkpt lat="47.78426" lon="5.29744">
        <ele>346</ele>
        <time>2013-05-04T15:40:43.000Z</time>
      </trkpt>
      <trkpt lat="47.78428" lon="5.29748">
        <ele>346</ele>
        <time>2013-05-04T15:40:46.000Z</time>
      </trkpt>
      <trkpt lat="47.78437" lon="5.29759">
        <ele>347</ele>
        <time>2013-05-04T15:40:56.000Z</time>
      </trkpt>
      <trkpt lat="47.78438" lon="5.29761">
        <ele>347</ele>
        <time>2013-05-04T15:40:58.000Z</time>
      </trkpt>
      <trkpt lat="47.78441" lon="5.29769">
        <ele>347</ele>
        <time>2013-05-04T15:41:05.000Z</time>
      </trkpt>
      <trkpt lat="47.78441" lon="5.29774">
        <ele>347</ele>
        <time>2013-05-04T15:41:08.000Z</time>
      </trkpt>
      <trkpt lat="47.78441" lon="5.29778">
        <ele>347</ele>
        <time>2013-05-04T15:41:11.000Z</time>
      </trkpt>
      <trkpt lat="47.78439" lon="5.29782">
        <ele>348</ele>
        <time>2013-05-04T15:41:14.000Z</time>
      </trkpt>
      <trkpt lat="47.78438" lon="5.29783">
        <ele>348</ele>
        <time>2013-05-04T15:41:16.000Z</time>
      </trkpt>
      <trkpt lat="47.78432" lon="5.29787">
        <ele>348</ele>
        <time>2013-05-04T15:41:22.000Z</time>
      </trkpt>
      <trkpt lat="47.78431" lon="5.29789">
        <ele>348</ele>
        <time>2013-05-04T15:41:25.000Z</time>
      </trkpt>
      <trkpt lat="47.78428" lon="5.29792">
        <ele>348</ele>
        <time>2013-05-04T15:41:27.000Z</time>
      </trkpt>
      <trkpt lat="47.78407" lon="5.29805">
        <ele>349</ele>
        <time>2013-05-04T15:41:44.000Z</time>
      </trkpt>
      <trkpt lat="47.78404" lon="5.29805">
        <ele>349</ele>
        <time>2013-05-04T15:41:47.000Z</time>
      </trkpt>
      <trkpt lat="47.78385" lon="5.29807">
        <ele>349</ele>
        <time>2013-05-04T15:42:03.000Z</time>
      </trkpt>
      <trkpt lat="47.78358" lon="5.29808">
        <ele>350</ele>
        <time>2013-05-04T15:42:29.000Z</time>
      </trkpt>
      <trkpt lat="47.78337" lon="5.29807">
        <ele>350</ele>
        <time>2013-05-04T15:42:47.000Z</time>
      </trkpt>
      <trkpt lat="47.78332" lon="5.29807">
        <ele>350</ele>
        <time>2013-05-04T15:42:53.000Z</time>
      </trkpt>
      <trkpt lat="47.78327" lon="5.29809">
        <ele>350</ele>
        <time>2013-05-04T15:42:56.000Z</time>
      </trkpt>
      <trkpt lat="47.78325" lon="5.29811">
        <ele>350</ele>
        <time>2013-05-04T15:42:58.000Z</time>
      </trkpt>
      <trkpt lat="47.78321" lon="5.29812">
        <ele>350</ele>
        <time>2013-05-04T15:43:01.000Z</time>
      </trkpt>
      <trkpt lat="47.78289" lon="5.29823">
        <ele>350</ele>
        <time>2013-05-04T15:43:32.000Z</time>
      </trkpt>
      <trkpt lat="47.78281" lon="5.29823">
        <ele>350</ele>
        <time>2013-05-04T15:43:40.000Z</time>
      </trkpt>
      <trkpt lat="47.78253" lon="5.29829">
        <ele>350</ele>
        <time>2013-05-04T15:44:03.000Z</time>
      </trkpt>
      <trkpt lat="47.7825" lon="5.29829">
        <ele>350</ele>
        <time>2013-05-04T15:44:06.000Z</time>
      </trkpt>
      <trkpt lat="47.78244" lon="5.29831">
        <ele>350</ele>
        <time>2013-05-04T15:44:11.000Z</time>
      </trkpt>
      <trkpt lat="47.78242" lon="5.29831">
        <ele>350</ele>
        <time>2013-05-04T15:44:14.000Z</time>
      </trkpt>
      <trkpt lat="47.78238" lon="5.29831">
        <ele>349</ele>
        <time>2013-05-04T15:44:17.000Z</time>
      </trkpt>
      <trkpt lat="47.78234" lon="5.29833">
        <ele>349</ele>
        <time>2013-05-04T15:44:19.000Z</time>
      </trkpt>
      <trkpt lat="47.7822" lon="5.29845">
        <ele>349</ele>
        <time>2013-05-04T15:44:34.000Z</time>
      </trkpt>
      <trkpt lat="47.78217" lon="5.29847">
        <ele>349</ele>
        <time>2013-05-04T15:44:36.000Z</time>
      </trkpt>
      <trkpt lat="47.78215" lon="5.29848">
        <ele>349</ele>
        <time>2013-05-04T15:44:39.000Z</time>
      </trkpt>
      <trkpt lat="47.78208" lon="5.29854">
        <ele>349</ele>
        <time>2013-05-04T15:44:45.000Z</time>
      </trkpt>
      <trkpt lat="47.78187" lon="5.29868">
        <ele>349</ele>
        <time>2013-05-04T15:45:04.000Z</time>
      </trkpt>
      <trkpt lat="47.78183" lon="5.29869">
        <ele>349</ele>
        <time>2013-05-04T15:45:07.000Z</time>
      </trkpt>
      <trkpt lat="47.7818" lon="5.29872">
        <ele>349</ele>
        <time>2013-05-04T15:45:12.000Z</time>
      </trkpt>
      <trkpt lat="47.78175" lon="5.29877">
        <ele>349</ele>
        <time>2013-05-04T15:45:17.000Z</time>
      </trkpt>
      <trkpt lat="47.78164" lon="5.29885">
        <ele>349</ele>
        <time>2013-05-04T15:45:30.000Z</time>
      </trkpt>
      <trkpt lat="47.78161" lon="5.29886">
        <ele>349</ele>
        <time>2013-05-04T15:45:33.000Z</time>
      </trkpt>
      <trkpt lat="47.78158" lon="5.29887">
        <ele>349</ele>
        <time>2013-05-04T15:45:36.000Z</time>
      </trkpt>
      <trkpt lat="47.78156" lon="5.2989">
        <ele>349</ele>
        <time>2013-05-04T15:45:42.000Z</time>
      </trkpt>
      <trkpt lat="47.78154" lon="5.29893">
        <ele>349</ele>
        <time>2013-05-04T15:45:45.000Z</time>
      </trkpt>
      <trkpt lat="47.78139" lon="5.29911">
        <ele>349</ele>
        <time>2013-05-04T15:46:10.000Z</time>
      </trkpt>
      <trkpt lat="47.78134" lon="5.29914">
        <ele>349</ele>
        <time>2013-05-04T15:46:14.000Z</time>
      </trkpt>
      <trkpt lat="47.78092" lon="5.29941">
        <ele>349</ele>
        <time>2013-05-04T15:46:44.000Z</time>
      </trkpt>
      <trkpt lat="47.78078" lon="5.29951">
        <ele>348</ele>
        <time>2013-05-04T15:46:56.000Z</time>
      </trkpt>
      <trkpt lat="47.78077" lon="5.29952">
        <ele>348</ele>
        <time>2013-05-04T15:46:59.000Z</time>
      </trkpt>
      <trkpt lat="47.78071" lon="5.29957">
        <ele>348</ele>
        <time>2013-05-04T15:47:02.000Z</time>
      </trkpt>
      <trkpt lat="47.78069" lon="5.29959">
        <ele>348</ele>
        <time>2013-05-04T15:47:04.000Z</time>
      </trkpt>
      <trkpt lat="47.78059" lon="5.29968">
        <ele>348</ele>
        <time>2013-05-04T15:47:12.000Z</time>
      </trkpt>
      <trkpt lat="47.78054" lon="5.29973">
        <ele>348</ele>
        <time>2013-05-04T15:47:17.000Z</time>
      </trkpt>
      <trkpt lat="47.78051" lon="5.29979">
        <ele>348</ele>
        <time>2013-05-04T15:47:24.000Z</time>
      </trkpt>
      <trkpt lat="47.7805" lon="5.2998">
        <ele>348</ele>
        <time>2013-05-04T15:47:27.000Z</time>
      </trkpt>
      <trkpt lat="47.78029" lon="5.3">
        <ele>347</ele>
        <time>2013-05-04T15:47:47.000Z</time>
      </trkpt>
      <trkpt lat="47.78027" lon="5.30004">
        <ele>347</ele>
        <time>2013-05-04T15:47:55.000Z</time>
      </trkpt>
      <trkpt lat="47.78019" lon="5.30011">
        <ele>347</ele>
        <time>2013-05-04T15:48:04.000Z</time>
      </trkpt>
      <trkpt lat="47.77987" lon="5.30046">
        <ele>347</ele>
        <time>2013-05-04T15:48:38.000Z</time>
      </trkpt>
      <trkpt lat="47.77985" lon="5.30047">
        <ele>348</ele>
        <time>2013-05-04T15:48:40.000Z</time>
      </trkpt>
      <trkpt lat="47.7798" lon="5.30049">
        <ele>348</ele>
        <time>2013-05-04T15:48:43.000Z</time>
      </trkpt>
      <trkpt lat="47.77975" lon="5.30052">
        <ele>348</ele>
        <time>2013-05-04T15:48:46.000Z</time>
      </trkpt>
      <trkpt lat="47.77972" lon="5.30055">
        <ele>348</ele>
        <time>2013-05-04T15:48:49.000Z</time>
      </trkpt>
      <trkpt lat="47.7797" lon="5.30058">
        <ele>348</ele>
        <time>2013-05-04T15:48:52.000Z</time>
      </trkpt>
      <trkpt lat="47.77968" lon="5.30061">
        <ele>348</ele>
        <time>2013-05-04T15:48:54.000Z</time>
      </trkpt>
      <trkpt lat="47.77959" lon="5.3007">
        <ele>348</ele>
        <time>2013-05-04T15:49:04.000Z</time>
      </trkpt>
      <trkpt lat="47.77956" lon="5.30071">
        <ele>348</ele>
        <time>2013-05-04T15:49:06.000Z</time>
      </trkpt>
      <trkpt lat="47.77938" lon="5.30081">
        <ele>348</ele>
        <time>2013-05-04T15:49:18.000Z</time>
      </trkpt>
      <trkpt lat="47.77937" lon="5.30081">
        <ele>348</ele>
        <time>2013-05-04T15:49:20.000Z</time>
      </trkpt>
      <trkpt lat="47.77934" lon="5.30082">
        <ele>348</ele>
        <time>2013-05-04T15:49:23.000Z</time>
      </trkpt>
      <trkpt lat="47.77938" lon="5.30084">
        <ele>348</ele>
        <time>2013-05-04T15:49:30.000Z</time>
      </trkpt>
      <trkpt lat="47.77938" lon="5.30084">
        <ele>348</ele>
        <time>2013-05-04T15:49:50.000Z</time>
      </trkpt>
      <trkpt lat="47.77934" lon="5.30087">
        <ele>348</ele>
        <time>2013-05-04T15:49:55.000Z</time>
      </trkpt>
      <trkpt lat="47.7793" lon="5.30092">
        <ele>348</ele>
        <time>2013-05-04T15:49:59.000Z</time>
      </trkpt>
      <trkpt lat="47.77922" lon="5.30098">
        <ele>348</ele>
        <time>2013-05-04T15:50:02.000Z</time>
      </trkpt>
      <trkpt lat="47.77919" lon="5.30103">
        <ele>348</ele>
        <time>2013-05-04T15:50:06.000Z</time>
      </trkpt>
      <trkpt lat="47.77914" lon="5.30106">
        <ele>348</ele>
        <time>2013-05-04T15:50:12.000Z</time>
      </trkpt>
      <trkpt lat="47.77912" lon="5.30107">
        <ele>349</ele>
        <time>2013-05-04T15:50:15.000Z</time>
      </trkpt>
      <trkpt lat="47.77908" lon="5.3011">
        <ele>349</ele>
        <time>2013-05-04T15:50:19.000Z</time>
      </trkpt>
      <trkpt lat="47.77899" lon="5.30117">
        <ele>349</ele>
        <time>2013-05-04T15:50:24.000Z</time>
      </trkpt>
      <trkpt lat="47.77892" lon="5.30124">
        <ele>348</ele>
        <time>2013-05-04T15:50:29.000Z</time>
      </trkpt>
      <trkpt lat="47.77888" lon="5.30128">
        <ele>348</ele>
        <time>2013-05-04T15:50:32.000Z</time>
      </trkpt>
      <trkpt lat="47.77885" lon="5.30133">
        <ele>348</ele>
        <time>2013-05-04T15:50:35.000Z</time>
      </trkpt>
      <trkpt lat="47.77877" lon="5.30143">
        <ele>349</ele>
        <time>2013-05-04T15:50:44.000Z</time>
      </trkpt>
      <trkpt lat="47.77855" lon="5.30165">
        <ele>349</ele>
        <time>2013-05-04T15:51:02.000Z</time>
      </trkpt>
      <trkpt lat="47.77851" lon="5.30164">
        <ele>348</ele>
        <time>2013-05-04T15:51:04.000Z</time>
      </trkpt>
      <trkpt lat="47.77848" lon="5.30164">
        <ele>348</ele>
        <time>2013-05-04T15:51:06.000Z</time>
      </trkpt>
      <trkpt lat="47.77845" lon="5.30165">
        <ele>347</ele>
        <time>2013-05-04T15:51:09.000Z</time>
      </trkpt>
      <trkpt lat="47.77841" lon="5.30165">
        <ele>347</ele>
        <time>2013-05-04T15:51:12.000Z</time>
      </trkpt>
      <trkpt lat="47.77838" lon="5.30164">
        <ele>346</ele>
        <time>2013-05-04T15:51:15.000Z</time>
      </trkpt>
      <trkpt lat="47.77835" lon="5.30164">
        <ele>346</ele>
        <time>2013-05-04T15:51:17.000Z</time>
      </trkpt>
      <trkpt lat="47.77833" lon="5.30165">
        <ele>346</ele>
        <time>2013-05-04T15:51:19.000Z</time>
      </trkpt>
      <trkpt lat="47.77831" lon="5.30164">
        <ele>345</ele>
        <time>2013-05-04T15:51:22.000Z</time>
      </trkpt>
      <trkpt lat="47.77827" lon="5.30172">
        <ele>345</ele>
        <time>2013-05-04T15:51:35.000Z</time>
      </trkpt>
      <trkpt lat="47.77826" lon="5.30175">
        <ele>345</ele>
        <time>2013-05-04T15:51:38.000Z</time>
      </trkpt>
      <trkpt lat="47.77827" lon="5.30183">
        <ele>345</ele>
        <time>2013-05-04T15:51:40.000Z</time>
      </trkpt>
      <trkpt lat="47.77825" lon="5.30191">
        <ele>345</ele>
        <time>2013-05-04T15:51:43.000Z</time>
      </trkpt>
      <trkpt lat="47.77823" lon="5.30195">
        <ele>346</ele>
        <time>2013-05-04T15:51:45.000Z</time>
      </trkpt>
      <trkpt lat="47.77823" lon="5.30203">
        <ele>346</ele>
        <time>2013-05-04T15:51:48.000Z</time>
      </trkpt>
      <trkpt lat="47.77823" lon="5.30207">
        <ele>347</ele>
        <time>2013-05-04T15:51:51.000Z</time>
      </trkpt>
      <trkpt lat="47.7782" lon="5.30215">
        <ele>348</ele>
        <time>2013-05-04T15:51:56.000Z</time>
      </trkpt>
      <trkpt lat="47.77816" lon="5.30217">
        <ele>348</ele>
        <time>2013-05-04T15:51:59.000Z</time>
      </trkpt>
      <trkpt lat="47.77812" lon="5.3022">
        <ele>348</ele>
        <time>2013-05-04T15:52:01.000Z</time>
      </trkpt>
      <trkpt lat="47.77808" lon="5.30222">
        <ele>347</ele>
        <time>2013-05-04T15:52:04.000Z</time>
      </trkpt>
      <trkpt lat="47.77799" lon="5.30228">
        <ele>346</ele>
        <time>2013-05-04T15:52:13.000Z</time>
      </trkpt>
      <trkpt lat="47.7779" lon="5.30232">
        <ele>345</ele>
        <time>2013-05-04T15:52:19.000Z</time>
      </trkpt>
      <trkpt lat="47.77784" lon="5.30236">
        <ele>344</ele>
        <time>2013-05-04T15:52:25.000Z</time>
      </trkpt>
      <trkpt lat="47.7778" lon="5.30239">
        <ele>344</ele>
        <time>2013-05-04T15:52:27.000Z</time>
      </trkpt>
      <trkpt lat="47.77779" lon="5.3024">
        <ele>343</ele>
        <time>2013-05-04T15:52:30.000Z</time>
      </trkpt>
      <trkpt lat="47.77776" lon="5.30242">
        <ele>343</ele>
        <time>2013-05-04T15:52:32.000Z</time>
      </trkpt>
      <trkpt lat="47.77774" lon="5.30245">
        <ele>342</ele>
        <time>2013-05-04T15:52:35.000Z</time>
      </trkpt>
      <trkpt lat="47.77772" lon="5.30249">
        <ele>342</ele>
        <time>2013-05-04T15:52:38.000Z</time>
      </trkpt>
      <trkpt lat="47.77769" lon="5.30254">
        <ele>342</ele>
        <time>2013-05-04T15:52:41.000Z</time>
      </trkpt>
      <trkpt lat="47.77767" lon="5.30256">
        <ele>341</ele>
        <time>2013-05-04T15:52:44.000Z</time>
      </trkpt>
      <trkpt lat="47.77758" lon="5.30265">
        <ele>340</ele>
        <time>2013-05-04T15:52:52.000Z</time>
      </trkpt>
      <trkpt lat="47.77755" lon="5.3027">
        <ele>340</ele>
        <time>2013-05-04T15:52:55.000Z</time>
      </trkpt>
      <trkpt lat="47.77752" lon="5.30272">
        <ele>339</ele>
        <time>2013-05-04T15:52:57.000Z</time>
      </trkpt>
      <trkpt lat="47.7775" lon="5.30274">
        <ele>339</ele>
        <time>2013-05-04T15:53:00.000Z</time>
      </trkpt>
      <trkpt lat="47.77748" lon="5.30275">
        <ele>338</ele>
        <time>2013-05-04T15:53:02.000Z</time>
      </trkpt>
      <trkpt lat="47.77741" lon="5.3028">
        <ele>337</ele>
        <time>2013-05-04T15:53:08.000Z</time>
      </trkpt>
      <trkpt lat="47.77738" lon="5.30284">
        <ele>337</ele>
        <time>2013-05-04T15:53:11.000Z</time>
      </trkpt>
      <trkpt lat="47.77734" lon="5.30287">
        <ele>337</ele>
        <time>2013-05-04T15:53:14.000Z</time>
      </trkpt>
      <trkpt lat="47.77732" lon="5.3029">
        <ele>337</ele>
        <time>2013-05-04T15:53:16.000Z</time>
      </trkpt>
      <trkpt lat="47.77727" lon="5.30293">
        <ele>337</ele>
        <time>2013-05-04T15:53:19.000Z</time>
      </trkpt>
      <trkpt lat="47.77722" lon="5.30296">
        <ele>336</ele>
        <time>2013-05-04T15:53:22.000Z</time>
      </trkpt>
      <trkpt lat="47.77716" lon="5.30298">
        <ele>336</ele>
        <time>2013-05-04T15:53:25.000Z</time>
      </trkpt>
      <trkpt lat="47.7771" lon="5.30299">
        <ele>335</ele>
        <time>2013-05-04T15:53:29.000Z</time>
      </trkpt>
      <trkpt lat="47.77708" lon="5.303">
        <ele>335</ele>
        <time>2013-05-04T15:53:32.000Z</time>
      </trkpt>
      <trkpt lat="47.77705" lon="5.30301">
        <ele>335</ele>
        <time>2013-05-04T15:53:34.000Z</time>
      </trkpt>
      <trkpt lat="47.77699" lon="5.30303">
        <ele>334</ele>
        <time>2013-05-04T15:53:39.000Z</time>
      </trkpt>
      <trkpt lat="47.77688" lon="5.30309">
        <ele>333</ele>
        <time>2013-05-04T15:53:47.000Z</time>
      </trkpt>
      <trkpt lat="47.77678" lon="5.30313">
        <ele>332</ele>
        <time>2013-05-04T15:53:56.000Z</time>
      </trkpt>
      <trkpt lat="47.77675" lon="5.30314">
        <ele>332</ele>
        <time>2013-05-04T15:53:58.000Z</time>
      </trkpt>
      <trkpt lat="47.77672" lon="5.30314">
        <ele>331</ele>
        <time>2013-05-04T15:54:01.000Z</time>
      </trkpt>
      <trkpt lat="47.77669" lon="5.30315">
        <ele>331</ele>
        <time>2013-05-04T15:54:04.000Z</time>
      </trkpt>
      <trkpt lat="47.77667" lon="5.30316">
        <ele>331</ele>
        <time>2013-05-04T15:54:07.000Z</time>
      </trkpt>
      <trkpt lat="47.77665" lon="5.30316">
        <ele>330</ele>
        <time>2013-05-04T15:54:09.000Z</time>
      </trkpt>
      <trkpt lat="47.7766" lon="5.30318">
        <ele>330</ele>
        <time>2013-05-04T15:54:14.000Z</time>
      </trkpt>
      <trkpt lat="47.77657" lon="5.30321">
        <ele>331</ele>
        <time>2013-05-04T15:54:16.000Z</time>
      </trkpt>
      <trkpt lat="47.77653" lon="5.30321">
        <ele>331</ele>
        <time>2013-05-04T15:54:19.000Z</time>
      </trkpt>
      <trkpt lat="47.77646" lon="5.30324">
        <ele>331</ele>
        <time>2013-05-04T15:54:27.000Z</time>
      </trkpt>
      <trkpt lat="47.77643" lon="5.30324">
        <ele>332</ele>
        <time>2013-05-04T15:54:29.000Z</time>
      </trkpt>
      <trkpt lat="47.77634" lon="5.30327">
        <ele>333</ele>
        <time>2013-05-04T15:54:36.000Z</time>
      </trkpt>
      <trkpt lat="47.77631" lon="5.30328">
        <ele>333</ele>
        <time>2013-05-04T15:54:39.000Z</time>
      </trkpt>
      <trkpt lat="47.7763" lon="5.30329">
        <ele>333</ele>
        <time>2013-05-04T15:54:41.000Z</time>
      </trkpt>
      <trkpt lat="47.77626" lon="5.30331">
        <ele>334</ele>
        <time>2013-05-04T15:54:43.000Z</time>
      </trkpt>
      <trkpt lat="47.77622" lon="5.30333">
        <ele>334</ele>
        <time>2013-05-04T15:54:46.000Z</time>
      </trkpt>
      <trkpt lat="47.77619" lon="5.30333">
        <ele>334</ele>
        <time>2013-05-04T15:54:49.000Z</time>
      </trkpt>
      <trkpt lat="47.77616" lon="5.30335">
        <ele>334</ele>
        <time>2013-05-04T15:54:52.000Z</time>
      </trkpt>
      <trkpt lat="47.77613" lon="5.30337">
        <ele>335</ele>
        <time>2013-05-04T15:54:55.000Z</time>
      </trkpt>
      <trkpt lat="47.77611" lon="5.30339">
        <ele>335</ele>
        <time>2013-05-04T15:54:58.000Z</time>
      </trkpt>
      <trkpt lat="47.77581" lon="5.30366">
        <ele>335</ele>
        <time>2013-05-04T15:55:28.000Z</time>
      </trkpt>
      <trkpt lat="47.77569" lon="5.30381">
        <ele>335</ele>
        <time>2013-05-04T15:55:44.000Z</time>
      </trkpt>
      <trkpt lat="47.77568" lon="5.30383">
        <ele>335</ele>
        <time>2013-05-04T15:55:46.000Z</time>
      </trkpt>
      <trkpt lat="47.77563" lon="5.30396">
        <ele>335</ele>
        <time>2013-05-04T15:55:54.000Z</time>
      </trkpt>
      <trkpt lat="47.77562" lon="5.30399">
        <ele>334</ele>
        <time>2013-05-04T15:55:58.000Z</time>
      </trkpt>
      <trkpt lat="47.77562" lon="5.30401">
        <ele>334</ele>
        <time>2013-05-04T15:56:00.000Z</time>
      </trkpt>
      <trkpt lat="47.77557" lon="5.30413">
        <ele>333</ele>
        <time>2013-05-04T15:56:10.000Z</time>
      </trkpt>
      <trkpt lat="47.77551" lon="5.30427">
        <ele>333</ele>
        <time>2013-05-04T15:56:21.000Z</time>
      </trkpt>
      <trkpt lat="47.77536" lon="5.30462">
        <ele>333</ele>
        <time>2013-05-04T15:56:59.000Z</time>
      </trkpt>
      <trkpt lat="47.77534" lon="5.30466">
        <ele>332</ele>
        <time>2013-05-04T15:57:01.000Z</time>
      </trkpt>
      <trkpt lat="47.77533" lon="5.30469">
        <ele>332</ele>
        <time>2013-05-04T15:57:03.000Z</time>
      </trkpt>
      <trkpt lat="47.77522" lon="5.30502">
        <ele>331</ele>
        <time>2013-05-04T15:57:19.000Z</time>
      </trkpt>
      <trkpt lat="47.77517" lon="5.30507">
        <ele>331</ele>
        <time>2013-05-04T15:57:26.000Z</time>
      </trkpt>
      <trkpt lat="47.77512" lon="5.30512">
        <ele>331</ele>
        <time>2013-05-04T15:57:30.000Z</time>
      </trkpt>
      <trkpt lat="47.77507" lon="5.30514">
        <ele>331</ele>
        <time>2013-05-04T15:57:32.000Z</time>
      </trkpt>
      <trkpt lat="47.77502" lon="5.30515">
        <ele>331</ele>
        <time>2013-05-04T15:57:35.000Z</time>
      </trkpt>
      <trkpt lat="47.77491" lon="5.30518">
        <ele>332</ele>
        <time>2013-05-04T15:57:42.000Z</time>
      </trkpt>
      <trkpt lat="47.77486" lon="5.3052">
        <ele>332</ele>
        <time>2013-05-04T15:57:45.000Z</time>
      </trkpt>
      <trkpt lat="47.77484" lon="5.30522">
        <ele>332</ele>
        <time>2013-05-04T15:57:47.000Z</time>
      </trkpt>
      <trkpt lat="47.7748" lon="5.30524">
        <ele>333</ele>
        <time>2013-05-04T15:57:50.000Z</time>
      </trkpt>
      <trkpt lat="47.77474" lon="5.30527">
        <ele>333</ele>
        <time>2013-05-04T15:57:57.000Z</time>
      </trkpt>
      <trkpt lat="47.77471" lon="5.30529">
        <ele>333</ele>
        <time>2013-05-04T15:57:59.000Z</time>
      </trkpt>
      <trkpt lat="47.77467" lon="5.30534">
        <ele>334</ele>
        <time>2013-05-04T15:58:02.000Z</time>
      </trkpt>
      <trkpt lat="47.77452" lon="5.30552">
        <ele>334</ele>
        <time>2013-05-04T15:58:16.000Z</time>
      </trkpt>
      <trkpt lat="47.77448" lon="5.30556">
        <ele>333</ele>
        <time>2013-05-04T15:58:19.000Z</time>
      </trkpt>
      <trkpt lat="47.77441" lon="5.3056">
        <ele>333</ele>
        <time>2013-05-04T15:58:25.000Z</time>
      </trkpt>
      <trkpt lat="47.77438" lon="5.30561">
        <ele>333</ele>
        <time>2013-05-04T15:58:27.000Z</time>
      </trkpt>
      <trkpt lat="47.77436" lon="5.30562">
        <ele>333</ele>
        <time>2013-05-04T15:58:30.000Z</time>
      </trkpt>
      <trkpt lat="47.77434" lon="5.30564">
        <ele>333</ele>
        <time>2013-05-04T15:58:32.000Z</time>
      </trkpt>
      <trkpt lat="47.77431" lon="5.30567">
        <ele>333</ele>
        <time>2013-05-04T15:58:34.000Z</time>
      </trkpt>
      <trkpt lat="47.77427" lon="5.3057">
        <ele>333</ele>
        <time>2013-05-04T15:58:42.000Z</time>
      </trkpt>
      <trkpt lat="47.77414" lon="5.30583">
        <ele>333</ele>
        <time>2013-05-04T15:58:55.000Z</time>
      </trkpt>
      <trkpt lat="47.77409" lon="5.30589">
        <ele>332</ele>
        <time>2013-05-04T15:58:58.000Z</time>
      </trkpt>
      <trkpt lat="47.77404" lon="5.30592">
        <ele>332</ele>
        <time>2013-05-04T15:59:01.000Z</time>
      </trkpt>
      <trkpt lat="47.77394" lon="5.30597">
        <ele>331</ele>
        <time>2013-05-04T15:59:04.000Z</time>
      </trkpt>
      <trkpt lat="47.77391" lon="5.30598">
        <ele>331</ele>
        <time>2013-05-04T15:59:07.000Z</time>
      </trkpt>
      <trkpt lat="47.7739" lon="5.30598">
        <ele>330</ele>
        <time>2013-05-04T15:59:09.000Z</time>
      </trkpt>
      <trkpt lat="47.77387" lon="5.306">
        <ele>330</ele>
        <time>2013-05-04T15:59:11.000Z</time>
      </trkpt>
      <trkpt lat="47.77384" lon="5.30598">
        <ele>330</ele>
        <time>2013-05-04T15:59:14.000Z</time>
      </trkpt>
      <trkpt lat="47.77381" lon="5.30599">
        <ele>330</ele>
        <time>2013-05-04T15:59:17.000Z</time>
      </trkpt>
      <trkpt lat="47.77379" lon="5.306">
        <ele>330</ele>
        <time>2013-05-04T15:59:20.000Z</time>
      </trkpt>
      <trkpt lat="47.77378" lon="5.30599">
        <ele>329</ele>
        <time>2013-05-04T15:59:23.000Z</time>
      </trkpt>
      <trkpt lat="47.77375" lon="5.30601">
        <ele>329</ele>
        <time>2013-05-04T15:59:31.000Z</time>
      </trkpt>
      <trkpt lat="47.77373" lon="5.30602">
        <ele>329</ele>
        <time>2013-05-04T15:59:34.000Z</time>
      </trkpt>
      <trkpt lat="47.77364" lon="5.30607">
        <ele>329</ele>
        <time>2013-05-04T15:59:45.000Z</time>
      </trkpt>
      <trkpt lat="47.77359" lon="5.30611">
        <ele>329</ele>
        <time>2013-05-04T15:59:47.000Z</time>
      </trkpt>
      <trkpt lat="47.77357" lon="5.30613">
        <ele>328</ele>
        <time>2013-05-04T15:59:50.000Z</time>
      </trkpt>
      <trkpt lat="47.77355" lon="5.30617">
        <ele>328</ele>
        <time>2013-05-04T15:59:52.000Z</time>
      </trkpt>
      <trkpt lat="47.77355" lon="5.30622">
        <ele>328</ele>
        <time>2013-05-04T15:59:55.000Z</time>
      </trkpt>
      <trkpt lat="47.77352" lon="5.30624">
        <ele>328</ele>
        <time>2013-05-04T15:59:57.000Z</time>
      </trkpt>
      <trkpt lat="47.77347" lon="5.30627">
        <ele>327</ele>
        <time>2013-05-04T16:00:00.000Z</time>
      </trkpt>
      <trkpt lat="47.77337" lon="5.30635">
        <ele>327</ele>
        <time>2013-05-04T16:00:09.000Z</time>
      </trkpt>
      <trkpt lat="47.77333" lon="5.30638">
        <ele>327</ele>
        <time>2013-05-04T16:00:12.000Z</time>
      </trkpt>
      <trkpt lat="47.77327" lon="5.30643">
        <ele>327</ele>
        <time>2013-05-04T16:00:24.000Z</time>
      </trkpt>
      <trkpt lat="47.77325" lon="5.30645">
        <ele>327</ele>
        <time>2013-05-04T16:00:24.000Z</time>
      </trkpt>
      <trkpt lat="47.77324" lon="5.30648">
        <ele>327</ele>
        <time>2013-05-04T16:00:26.000Z</time>
      </trkpt>
      <trkpt lat="47.77321" lon="5.30652">
        <ele>328</ele>
        <time>2013-05-04T16:00:27.000Z</time>
      </trkpt>
      <trkpt lat="47.77313" lon="5.30665">
        <ele>329</ele>
        <time>2013-05-04T16:00:35.000Z</time>
      </trkpt>
      <trkpt lat="47.77298" lon="5.30689">
        <ele>330</ele>
        <time>2013-05-04T16:00:57.000Z</time>
      </trkpt>
      <trkpt lat="47.77293" lon="5.30693">
        <ele>330</ele>
        <time>2013-05-04T16:01:02.000Z</time>
      </trkpt>
      <trkpt lat="47.77285" lon="5.30699">
        <ele>330</ele>
        <time>2013-05-04T16:01:09.000Z</time>
      </trkpt>
      <trkpt lat="47.77282" lon="5.30703">
        <ele>331</ele>
        <time>2013-05-04T16:01:12.000Z</time>
      </trkpt>
      <trkpt lat="47.77281" lon="5.30705">
        <ele>331</ele>
        <time>2013-05-04T16:01:14.000Z</time>
      </trkpt>
      <trkpt lat="47.77277" lon="5.30711">
        <ele>331</ele>
        <time>2013-05-04T16:01:19.000Z</time>
      </trkpt>
      <trkpt lat="47.77275" lon="5.30712">
        <ele>331</ele>
        <time>2013-05-04T16:01:22.000Z</time>
      </trkpt>
      <trkpt lat="47.77272" lon="5.30715">
        <ele>331</ele>
        <time>2013-05-04T16:01:25.000Z</time>
      </trkpt>
      <trkpt lat="47.7727" lon="5.30719">
        <ele>331</ele>
        <time>2013-05-04T16:01:27.000Z</time>
      </trkpt>
      <trkpt lat="47.77267" lon="5.30723">
        <ele>331</ele>
        <time>2013-05-04T16:01:30.000Z</time>
      </trkpt>
      <trkpt lat="47.77266" lon="5.30725">
        <ele>331</ele>
        <time>2013-05-04T16:01:33.000Z</time>
      </trkpt>
      <trkpt lat="47.77264" lon="5.30729">
        <ele>331</ele>
        <time>2013-05-04T16:01:35.000Z</time>
      </trkpt>
      <trkpt lat="47.77262" lon="5.30734">
        <ele>330</ele>
        <time>2013-05-04T16:01:40.000Z</time>
      </trkpt>
      <trkpt lat="47.77263" lon="5.30737">
        <ele>330</ele>
        <time>2013-05-04T16:01:42.000Z</time>
      </trkpt>
      <trkpt lat="47.77263" lon="5.3074">
        <ele>330</ele>
        <time>2013-05-04T16:01:44.000Z</time>
      </trkpt>
      <trkpt lat="47.7726" lon="5.30747">
        <ele>329</ele>
        <time>2013-05-04T16:01:50.000Z</time>
      </trkpt>
      <trkpt lat="47.77258" lon="5.30749">
        <ele>329</ele>
        <time>2013-05-04T16:01:52.000Z</time>
      </trkpt>
      <trkpt lat="47.77256" lon="5.30757">
        <ele>329</ele>
        <time>2013-05-04T16:02:01.000Z</time>
      </trkpt>
      <trkpt lat="47.77253" lon="5.30763">
        <ele>328</ele>
        <time>2013-05-04T16:02:03.000Z</time>
      </trkpt>
      <trkpt lat="47.77248" lon="5.30769">
        <ele>328</ele>
        <time>2013-05-04T16:02:08.000Z</time>
      </trkpt>
      <trkpt lat="47.77243" lon="5.30772">
        <ele>328</ele>
        <time>2013-05-04T16:02:11.000Z</time>
      </trkpt>
      <trkpt lat="47.77242" lon="5.30773">
        <ele>328</ele>
        <time>2013-05-04T16:02:13.000Z</time>
      </trkpt>
      <trkpt lat="47.7724" lon="5.30777">
        <ele>328</ele>
        <time>2013-05-04T16:02:15.000Z</time>
      </trkpt>
      <trkpt lat="47.77236" lon="5.30778">
        <ele>328</ele>
        <time>2013-05-04T16:02:18.000Z</time>
      </trkpt>
      <trkpt lat="47.77233" lon="5.3078">
        <ele>328</ele>
        <time>2013-05-04T16:02:21.000Z</time>
      </trkpt>
      <trkpt lat="47.77227" lon="5.30784">
        <ele>329</ele>
        <time>2013-05-04T16:02:26.000Z</time>
      </trkpt>
      <trkpt lat="47.77225" lon="5.30787">
        <ele>329</ele>
        <time>2013-05-04T16:02:29.000Z</time>
      </trkpt>
      <trkpt lat="47.77218" lon="5.30794">
        <ele>329</ele>
        <time>2013-05-04T16:02:34.000Z</time>
      </trkpt>
      <trkpt lat="47.77217" lon="5.30796">
        <ele>329</ele>
        <time>2013-05-04T16:02:36.000Z</time>
      </trkpt>
      <trkpt lat="47.77213" lon="5.30799">
        <ele>329</ele>
        <time>2013-05-04T16:02:38.000Z</time>
      </trkpt>
      <trkpt lat="47.77211" lon="5.30802">
        <ele>329</ele>
        <time>2013-05-04T16:02:41.000Z</time>
      </trkpt>
      <trkpt lat="47.77208" lon="5.30805">
        <ele>328</ele>
        <time>2013-05-04T16:02:44.000Z</time>
      </trkpt>
      <trkpt lat="47.77196" lon="5.30815">
        <ele>328</ele>
        <time>2013-05-04T16:02:53.000Z</time>
      </trkpt>
      <trkpt lat="47.77182" lon="5.30827">
        <ele>327</ele>
        <time>2013-05-04T16:03:07.000Z</time>
      </trkpt>
      <trkpt lat="47.77171" lon="5.30838">
        <ele>327</ele>
        <time>2013-05-04T16:03:16.000Z</time>
      </trkpt>
      <trkpt lat="47.7717" lon="5.3084">
        <ele>327</ele>
        <time>2013-05-04T16:03:18.000Z</time>
      </trkpt>
      <trkpt lat="47.77162" lon="5.30851">
        <ele>327</ele>
        <time>2013-05-04T16:03:27.000Z</time>
      </trkpt>
      <trkpt lat="47.77159" lon="5.30853">
        <ele>327</ele>
        <time>2013-05-04T16:03:30.000Z</time>
      </trkpt>
      <trkpt lat="47.77156" lon="5.30855">
        <ele>327</ele>
        <time>2013-05-04T16:03:33.000Z</time>
      </trkpt>
      <trkpt lat="47.77153" lon="5.30858">
        <ele>327</ele>
        <time>2013-05-04T16:03:35.000Z</time>
      </trkpt>
      <trkpt lat="47.7715" lon="5.30861">
        <ele>328</ele>
        <time>2013-05-04T16:03:38.000Z</time>
      </trkpt>
      <trkpt lat="47.77145" lon="5.30868">
        <ele>328</ele>
        <time>2013-05-04T16:03:45.000Z</time>
      </trkpt>
      <trkpt lat="47.77144" lon="5.30871">
        <ele>329</ele>
        <time>2013-05-04T16:03:48.000Z</time>
      </trkpt>
      <trkpt lat="47.7714" lon="5.30877">
        <ele>329</ele>
        <time>2013-05-04T16:03:51.000Z</time>
      </trkpt>
      <trkpt lat="47.77139" lon="5.30881">
        <ele>328</ele>
        <time>2013-05-04T16:03:55.000Z</time>
      </trkpt>
      <trkpt lat="47.77137" lon="5.30885">
        <ele>328</ele>
        <time>2013-05-04T16:03:58.000Z</time>
      </trkpt>
      <trkpt lat="47.77136" lon="5.30887">
        <ele>328</ele>
        <time>2013-05-04T16:04:00.000Z</time>
      </trkpt>
      <trkpt lat="47.77133" lon="5.30894">
        <ele>328</ele>
        <time>2013-05-04T16:04:03.000Z</time>
      </trkpt>
      <trkpt lat="47.77131" lon="5.30898">
        <ele>328</ele>
        <time>2013-05-04T16:04:07.000Z</time>
      </trkpt>
      <trkpt lat="47.77128" lon="5.30903">
        <ele>327</ele>
        <time>2013-05-04T16:04:10.000Z</time>
      </trkpt>
      <trkpt lat="47.77124" lon="5.30908">
        <ele>327</ele>
        <time>2013-05-04T16:04:15.000Z</time>
      </trkpt>
      <trkpt lat="47.7712" lon="5.30912">
        <ele>327</ele>
        <time>2013-05-04T16:04:18.000Z</time>
      </trkpt>
      <trkpt lat="47.7711" lon="5.30919">
        <ele>326</ele>
        <time>2013-05-04T16:04:26.000Z</time>
      </trkpt>
      <trkpt lat="47.77105" lon="5.30921">
        <ele>326</ele>
        <time>2013-05-04T16:04:28.000Z</time>
      </trkpt>
      <trkpt lat="47.77101" lon="5.30924">
        <ele>326</ele>
        <time>2013-05-04T16:04:31.000Z</time>
      </trkpt>
      <trkpt lat="47.77099" lon="5.30927">
        <ele>326</ele>
        <time>2013-05-04T16:04:33.000Z</time>
      </trkpt>
      <trkpt lat="47.77094" lon="5.30932">
        <ele>326</ele>
        <time>2013-05-04T16:04:38.000Z</time>
      </trkpt>
      <trkpt lat="47.7709" lon="5.3094">
        <ele>326</ele>
        <time>2013-05-04T16:04:45.000Z</time>
      </trkpt>
      <trkpt lat="47.77089" lon="5.30942">
        <ele>325</ele>
        <time>2013-05-04T16:04:48.000Z</time>
      </trkpt>
      <trkpt lat="47.77086" lon="5.30959">
        <ele>324</ele>
        <time>2013-05-04T16:04:56.000Z</time>
      </trkpt>
      <trkpt lat="47.77084" lon="5.30965">
        <ele>324</ele>
        <time>2013-05-04T16:05:01.000Z</time>
      </trkpt>
      <trkpt lat="47.77082" lon="5.30968">
        <ele>323</ele>
        <time>2013-05-04T16:05:04.000Z</time>
      </trkpt>
      <trkpt lat="47.77081" lon="5.30971">
        <ele>323</ele>
        <time>2013-05-04T16:05:07.000Z</time>
      </trkpt>
      <trkpt lat="47.77079" lon="5.30975">
        <ele>323</ele>
        <time>2013-05-04T16:05:10.000Z</time>
      </trkpt>
      <trkpt lat="47.77079" lon="5.30976">
        <ele>322</ele>
        <time>2013-05-04T16:05:12.000Z</time>
      </trkpt>
      <trkpt lat="47.77075" lon="5.3098">
        <ele>322</ele>
        <time>2013-05-04T16:05:15.000Z</time>
      </trkpt>
      <trkpt lat="47.77069" lon="5.30986">
        <ele>322</ele>
        <time>2013-05-04T16:05:21.000Z</time>
      </trkpt>
      <trkpt lat="47.77068" lon="5.3099">
        <ele>322</ele>
        <time>2013-05-04T16:05:23.000Z</time>
      </trkpt>
      <trkpt lat="47.77066" lon="5.30994">
        <ele>321</ele>
        <time>2013-05-04T16:05:26.000Z</time>
      </trkpt>
      <trkpt lat="47.77062" lon="5.30997">
        <ele>321</ele>
        <time>2013-05-04T16:05:29.000Z</time>
      </trkpt>
      <trkpt lat="47.77056" lon="5.30999">
        <ele>321</ele>
        <time>2013-05-04T16:05:32.000Z</time>
      </trkpt>
      <trkpt lat="47.77052" lon="5.31001">
        <ele>321</ele>
        <time>2013-05-04T16:05:35.000Z</time>
      </trkpt>
      <trkpt lat="47.77052" lon="5.31004">
        <ele>321</ele>
        <time>2013-05-04T16:05:37.000Z</time>
      </trkpt>
      <trkpt lat="47.7705" lon="5.31006">
        <ele>321</ele>
        <time>2013-05-04T16:05:39.000Z</time>
      </trkpt>
      <trkpt lat="47.77048" lon="5.31007">
        <ele>321</ele>
        <time>2013-05-04T16:05:42.000Z</time>
      </trkpt>
      <trkpt lat="47.77046" lon="5.31008">
        <ele>321</ele>
        <time>2013-05-04T16:05:44.000Z</time>
      </trkpt>
      <trkpt lat="47.77041" lon="5.31012">
        <ele>321</ele>
        <time>2013-05-04T16:05:51.000Z</time>
      </trkpt>
      <trkpt lat="47.77037" lon="5.31013">
        <ele>321</ele>
        <time>2013-05-04T16:05:56.000Z</time>
      </trkpt>
      <trkpt lat="47.77034" lon="5.31015">
        <ele>321</ele>
        <time>2013-05-04T16:05:59.000Z</time>
      </trkpt>
      <trkpt lat="47.77032" lon="5.31018">
        <ele>321</ele>
        <time>2013-05-04T16:06:01.000Z</time>
      </trkpt>
      <trkpt lat="47.77029" lon="5.31019">
        <ele>321</ele>
        <time>2013-05-04T16:06:03.000Z</time>
      </trkpt>
      <trkpt lat="47.77024" lon="5.31019">
        <ele>321</ele>
        <time>2013-05-04T16:06:06.000Z</time>
      </trkpt>
      <trkpt lat="47.77016" lon="5.31021">
        <ele>321</ele>
        <time>2013-05-04T16:06:11.000Z</time>
      </trkpt>
      <trkpt lat="47.77011" lon="5.31023">
        <ele>321</ele>
        <time>2013-05-04T16:06:14.000Z</time>
      </trkpt>
      <trkpt lat="47.77006" lon="5.31026">
        <ele>321</ele>
        <time>2013-05-04T16:06:17.000Z</time>
      </trkpt>
      <trkpt lat="47.77001" lon="5.31028">
        <ele>321</ele>
        <time>2013-05-04T16:06:20.000Z</time>
      </trkpt>
      <trkpt lat="47.76997" lon="5.31028">
        <ele>321</ele>
        <time>2013-05-04T16:06:22.000Z</time>
      </trkpt>
      <trkpt lat="47.76994" lon="5.31029">
        <ele>321</ele>
        <time>2013-05-04T16:06:25.000Z</time>
      </trkpt>
      <trkpt lat="47.76976" lon="5.31028">
        <ele>321</ele>
        <time>2013-05-04T16:06:52.000Z</time>
      </trkpt>
      <trkpt lat="47.76973" lon="5.31027">
        <ele>321</ele>
        <time>2013-05-04T16:06:55.000Z</time>
      </trkpt>
      <trkpt lat="47.76972" lon="5.31026">
        <ele>321</ele>
        <time>2013-05-04T16:06:57.000Z</time>
      </trkpt>
      <trkpt lat="47.76968" lon="5.31023">
        <ele>321</ele>
        <time>2013-05-04T16:06:59.000Z</time>
      </trkpt>
      <trkpt lat="47.76966" lon="5.31022">
        <ele>321</ele>
        <time>2013-05-04T16:07:01.000Z</time>
      </trkpt>
      <trkpt lat="47.76963" lon="5.31025">
        <ele>321</ele>
        <time>2013-05-04T16:07:05.000Z</time>
      </trkpt>
      <trkpt lat="47.76962" lon="5.31025">
        <ele>321</ele>
        <time>2013-05-04T16:07:07.000Z</time>
      </trkpt>
      <trkpt lat="47.7696" lon="5.31024">
        <ele>321</ele>
        <time>2013-05-04T16:07:10.000Z</time>
      </trkpt>
      <trkpt lat="47.76957" lon="5.31024">
        <ele>321</ele>
        <time>2013-05-04T16:07:12.000Z</time>
      </trkpt>
      <trkpt lat="47.76949" lon="5.31021">
        <ele>321</ele>
        <time>2013-05-04T16:07:17.000Z</time>
      </trkpt>
      <trkpt lat="47.76948" lon="5.31021">
        <ele>321</ele>
        <time>2013-05-04T16:07:19.000Z</time>
      </trkpt>
      <trkpt lat="47.76942" lon="5.31022">
        <ele>322</ele>
        <time>2013-05-04T16:07:25.000Z</time>
      </trkpt>
      <trkpt lat="47.76939" lon="5.3102">
        <ele>322</ele>
        <time>2013-05-04T16:07:30.000Z</time>
      </trkpt>
      <trkpt lat="47.76938" lon="5.31018">
        <ele>322</ele>
        <time>2013-05-04T16:07:32.000Z</time>
      </trkpt>
      <trkpt lat="47.76935" lon="5.31016">
        <ele>322</ele>
        <time>2013-05-04T16:07:35.000Z</time>
      </trkpt>
      <trkpt lat="47.76931" lon="5.31015">
        <ele>322</ele>
        <time>2013-05-04T16:07:40.000Z</time>
      </trkpt>
      <trkpt lat="47.76928" lon="5.31015">
        <ele>322</ele>
        <time>2013-05-04T16:07:43.000Z</time>
      </trkpt>
      <trkpt lat="47.76926" lon="5.31014">
        <ele>322</ele>
        <time>2013-05-04T16:07:46.000Z</time>
      </trkpt>
      <trkpt lat="47.76922" lon="5.31016">
        <ele>322</ele>
        <time>2013-05-04T16:07:48.000Z</time>
      </trkpt>
      <trkpt lat="47.76917" lon="5.31021">
        <ele>322</ele>
        <time>2013-05-04T16:07:54.000Z</time>
      </trkpt>
      <trkpt lat="47.76917" lon="5.31023">
        <ele>322</ele>
        <time>2013-05-04T16:07:57.000Z</time>
      </trkpt>
      <trkpt lat="47.76913" lon="5.31029">
        <ele>321</ele>
        <time>2013-05-04T16:08:00.000Z</time>
      </trkpt>
      <trkpt lat="47.76908" lon="5.31033">
        <ele>321</ele>
        <time>2013-05-04T16:08:03.000Z</time>
      </trkpt>
      <trkpt lat="47.76903" lon="5.31034">
        <ele>321</ele>
        <time>2013-05-04T16:08:06.000Z</time>
      </trkpt>
      <trkpt lat="47.76899" lon="5.31029">
        <ele>321</ele>
        <time>2013-05-04T16:08:08.000Z</time>
      </trkpt>
      <trkpt lat="47.76897" lon="5.31027">
        <ele>321</ele>
        <time>2013-05-04T16:08:11.000Z</time>
      </trkpt>
      <trkpt lat="47.76891" lon="5.31021">
        <ele>321</ele>
        <time>2013-05-04T16:08:13.000Z</time>
      </trkpt>
      <trkpt lat="47.76882" lon="5.31016">
        <ele>322</ele>
        <time>2013-05-04T16:08:26.000Z</time>
      </trkpt>
      <trkpt lat="47.76876" lon="5.31014">
        <ele>322</ele>
        <time>2013-05-04T16:08:29.000Z</time>
      </trkpt>
      <trkpt lat="47.76839" lon="5.30999">
        <ele>322</ele>
        <time>2013-05-04T16:09:01.000Z</time>
      </trkpt>
      <trkpt lat="47.76837" lon="5.30998">
        <ele>322</ele>
        <time>2013-05-04T16:09:03.000Z</time>
      </trkpt>
      <trkpt lat="47.76831" lon="5.30999">
        <ele>322</ele>
        <time>2013-05-04T16:09:09.000Z</time>
      </trkpt>
      <trkpt lat="47.76827" lon="5.30999">
        <ele>322</ele>
        <time>2013-05-04T16:09:12.000Z</time>
      </trkpt>
      <trkpt lat="47.76824" lon="5.30999">
        <ele>322</ele>
        <time>2013-05-04T16:09:15.000Z</time>
      </trkpt>
      <trkpt lat="47.76791" lon="5.30989">
        <ele>322</ele>
        <time>2013-05-04T16:09:45.000Z</time>
      </trkpt>
      <trkpt lat="47.76788" lon="5.30987">
        <ele>323</ele>
        <time>2013-05-04T16:09:48.000Z</time>
      </trkpt>
      <trkpt lat="47.76785" lon="5.30986">
        <ele>323</ele>
        <time>2013-05-04T16:09:51.000Z</time>
      </trkpt>
      <trkpt lat="47.76782" lon="5.30984">
        <ele>323</ele>
        <time>2013-05-04T16:09:54.000Z</time>
      </trkpt>
      <trkpt lat="47.76778" lon="5.30983">
        <ele>323</ele>
        <time>2013-05-04T16:09:57.000Z</time>
      </trkpt>
      <trkpt lat="47.76777" lon="5.30983">
        <ele>323</ele>
        <time>2013-05-04T16:09:59.000Z</time>
      </trkpt>
      <trkpt lat="47.76771" lon="5.30983">
        <ele>323</ele>
        <time>2013-05-04T16:10:05.000Z</time>
      </trkpt>
      <trkpt lat="47.76769" lon="5.30983">
        <ele>323</ele>
        <time>2013-05-04T16:10:07.000Z</time>
      </trkpt>
      <trkpt lat="47.76763" lon="5.30984">
        <ele>323</ele>
        <time>2013-05-04T16:10:10.000Z</time>
      </trkpt>
      <trkpt lat="47.76762" lon="5.30985">
        <ele>323</ele>
        <time>2013-05-04T16:10:12.000Z</time>
      </trkpt>
      <trkpt lat="47.76759" lon="5.30986">
        <ele>323</ele>
        <time>2013-05-04T16:10:14.000Z</time>
      </trkpt>
      <trkpt lat="47.76756" lon="5.30985">
        <ele>323</ele>
        <time>2013-05-04T16:10:17.000Z</time>
      </trkpt>
      <trkpt lat="47.76754" lon="5.30986">
        <ele>323</ele>
        <time>2013-05-04T16:10:19.000Z</time>
      </trkpt>
      <trkpt lat="47.76752" lon="5.30987">
        <ele>323</ele>
        <time>2013-05-04T16:10:21.000Z</time>
      </trkpt>
      <trkpt lat="47.76747" lon="5.30987">
        <ele>323</ele>
        <time>2013-05-04T16:10:24.000Z</time>
      </trkpt>
      <trkpt lat="47.76735" lon="5.30988">
        <ele>322</ele>
        <time>2013-05-04T16:10:32.000Z</time>
      </trkpt>
      <trkpt lat="47.76732" lon="5.30987">
        <ele>322</ele>
        <time>2013-05-04T16:10:34.000Z</time>
      </trkpt>
      <trkpt lat="47.76729" lon="5.30987">
        <ele>322</ele>
        <time>2013-05-04T16:10:37.000Z</time>
      </trkpt>
      <trkpt lat="47.76726" lon="5.30987">
        <ele>322</ele>
        <time>2013-05-04T16:10:40.000Z</time>
      </trkpt>
      <trkpt lat="47.76725" lon="5.30989">
        <ele>322</ele>
        <time>2013-05-04T16:10:42.000Z</time>
      </trkpt>
      <trkpt lat="47.7672" lon="5.30993">
        <ele>322</ele>
        <time>2013-05-04T16:10:47.000Z</time>
      </trkpt>
      <trkpt lat="47.76712" lon="5.30998">
        <ele>322</ele>
        <time>2013-05-04T16:10:54.000Z</time>
      </trkpt>
      <trkpt lat="47.76708" lon="5.30999">
        <ele>321</ele>
        <time>2013-05-04T16:10:57.000Z</time>
      </trkpt>
      <trkpt lat="47.76687" lon="5.31002">
        <ele>321</ele>
        <time>2013-05-04T16:11:12.000Z</time>
      </trkpt>
      <trkpt lat="47.76685" lon="5.31003">
        <ele>320</ele>
        <time>2013-05-04T16:11:14.000Z</time>
      </trkpt>
      <trkpt lat="47.76683" lon="5.31004">
        <ele>320</ele>
        <time>2013-05-04T16:11:17.000Z</time>
      </trkpt>
      <trkpt lat="47.76678" lon="5.31006">
        <ele>320</ele>
        <time>2013-05-04T16:11:22.000Z</time>
      </trkpt>
      <trkpt lat="47.76675" lon="5.31006">
        <ele>320</ele>
        <time>2013-05-04T16:11:25.000Z</time>
      </trkpt>
      <trkpt lat="47.76672" lon="5.31007">
        <ele>320</ele>
        <time>2013-05-04T16:11:28.000Z</time>
      </trkpt>
      <trkpt lat="47.76669" lon="5.31008">
        <ele>320</ele>
        <time>2013-05-04T16:11:31.000Z</time>
      </trkpt>
      <trkpt lat="47.76667" lon="5.31007">
        <ele>320</ele>
        <time>2013-05-04T16:11:33.000Z</time>
      </trkpt>
      <trkpt lat="47.76665" lon="5.31006">
        <ele>320</ele>
        <time>2013-05-04T16:11:36.000Z</time>
      </trkpt>
      <trkpt lat="47.76664" lon="5.31007">
        <ele>320</ele>
        <time>2013-05-04T16:11:39.000Z</time>
      </trkpt>
      <trkpt lat="47.76662" lon="5.31008">
        <ele>320</ele>
        <time>2013-05-04T16:11:41.000Z</time>
      </trkpt>
      <trkpt lat="47.76657" lon="5.31009">
        <ele>320</ele>
        <time>2013-05-04T16:11:46.000Z</time>
      </trkpt>
      <trkpt lat="47.76655" lon="5.31009">
        <ele>320</ele>
        <time>2013-05-04T16:11:48.000Z</time>
      </trkpt>
      <trkpt lat="47.7665" lon="5.31009">
        <ele>319</ele>
        <time>2013-05-04T16:11:51.000Z</time>
      </trkpt>
      <trkpt lat="47.76647" lon="5.31009">
        <ele>319</ele>
        <time>2013-05-04T16:11:54.000Z</time>
      </trkpt>
      <trkpt lat="47.76643" lon="5.31008">
        <ele>319</ele>
        <time>2013-05-04T16:11:57.000Z</time>
      </trkpt>
      <trkpt lat="47.76641" lon="5.31008">
        <ele>319</ele>
        <time>2013-05-04T16:11:59.000Z</time>
      </trkpt>
      <trkpt lat="47.76639" lon="5.31007">
        <ele>319</ele>
        <time>2013-05-04T16:12:01.000Z</time>
      </trkpt>
      <trkpt lat="47.76634" lon="5.31007">
        <ele>319</ele>
        <time>2013-05-04T16:12:04.000Z</time>
      </trkpt>
      <trkpt lat="47.76633" lon="5.31006">
        <ele>319</ele>
        <time>2013-05-04T16:12:06.000Z</time>
      </trkpt>
      <trkpt lat="47.76632" lon="5.31007">
        <ele>319</ele>
        <time>2013-05-04T16:12:08.000Z</time>
      </trkpt>
      <trkpt lat="47.7663" lon="5.31007">
        <ele>319</ele>
        <time>2013-05-04T16:12:11.000Z</time>
      </trkpt>
      <trkpt lat="47.76628" lon="5.31006">
        <ele>319</ele>
        <time>2013-05-04T16:12:14.000Z</time>
      </trkpt>
      <trkpt lat="47.76602" lon="5.31">
        <ele>318</ele>
        <time>2013-05-04T16:12:34.000Z</time>
      </trkpt>
      <trkpt lat="47.76599" lon="5.31">
        <ele>318</ele>
        <time>2013-05-04T16:12:37.000Z</time>
      </trkpt>
      <trkpt lat="47.76598" lon="5.30999">
        <ele>318</ele>
        <time>2013-05-04T16:12:39.000Z</time>
      </trkpt>
      <trkpt lat="47.76594" lon="5.30997">
        <ele>318</ele>
        <time>2013-05-04T16:12:45.000Z</time>
      </trkpt>
      <trkpt lat="47.7659" lon="5.30996">
        <ele>318</ele>
        <time>2013-05-04T16:12:48.000Z</time>
      </trkpt>
      <trkpt lat="47.76587" lon="5.30995">
        <ele>319</ele>
        <time>2013-05-04T16:12:50.000Z</time>
      </trkpt>
      <trkpt lat="47.76584" lon="5.30993">
        <ele>319</ele>
        <time>2013-05-04T16:12:52.000Z</time>
      </trkpt>
      <trkpt lat="47.76581" lon="5.30989">
        <ele>319</ele>
        <time>2013-05-04T16:12:55.000Z</time>
      </trkpt>
      <trkpt lat="47.7658" lon="5.30987">
        <ele>319</ele>
        <time>2013-05-04T16:12:57.000Z</time>
      </trkpt>
      <trkpt lat="47.76576" lon="5.30982">
        <ele>319</ele>
        <time>2013-05-04T16:13:00.000Z</time>
      </trkpt>
      <trkpt lat="47.76574" lon="5.3098">
        <ele>319</ele>
        <time>2013-05-04T16:13:02.000Z</time>
      </trkpt>
      <trkpt lat="47.76569" lon="5.30978">
        <ele>320</ele>
        <time>2013-05-04T16:13:07.000Z</time>
      </trkpt>
      <trkpt lat="47.76565" lon="5.30978">
        <ele>320</ele>
        <time>2013-05-04T16:13:13.000Z</time>
      </trkpt>
      <trkpt lat="47.76563" lon="5.30976">
        <ele>320</ele>
        <time>2013-05-04T16:13:15.000Z</time>
      </trkpt>
      <trkpt lat="47.76561" lon="5.30974">
        <ele>320</ele>
        <time>2013-05-04T16:13:18.000Z</time>
      </trkpt>
      <trkpt lat="47.76557" lon="5.30966">
        <ele>320</ele>
        <time>2013-05-04T16:13:21.000Z</time>
      </trkpt>
      <trkpt lat="47.76556" lon="5.30956">
        <ele>320</ele>
        <time>2013-05-04T16:13:24.000Z</time>
      </trkpt>
      <trkpt lat="47.76556" lon="5.3095">
        <ele>321</ele>
        <time>2013-05-04T16:13:26.000Z</time>
      </trkpt>
      <trkpt lat="47.76556" lon="5.30945">
        <ele>321</ele>
        <time>2013-05-04T16:13:30.000Z</time>
      </trkpt>
      <trkpt lat="47.76555" lon="5.30938">
        <ele>322</ele>
        <time>2013-05-04T16:13:33.000Z</time>
      </trkpt>
      <trkpt lat="47.76555" lon="5.30937">
        <ele>322</ele>
        <time>2013-05-04T16:13:36.000Z</time>
      </trkpt>
      <trkpt lat="47.76557" lon="5.30932">
        <ele>322</ele>
        <time>2013-05-04T16:13:39.000Z</time>
      </trkpt>
      <trkpt lat="47.76558" lon="5.30924">
        <ele>323</ele>
        <time>2013-05-04T16:13:42.000Z</time>
      </trkpt>
      <trkpt lat="47.7656" lon="5.30912">
        <ele>324</ele>
        <time>2013-05-04T16:13:48.000Z</time>
      </trkpt>
      <trkpt lat="47.7656" lon="5.30908">
        <ele>324</ele>
        <time>2013-05-04T16:13:50.000Z</time>
      </trkpt>
      <trkpt lat="47.76561" lon="5.30898">
        <ele>325</ele>
        <time>2013-05-04T16:13:56.000Z</time>
      </trkpt>
      <trkpt lat="47.76561" lon="5.3089">
        <ele>326</ele>
        <time>2013-05-04T16:14:01.000Z</time>
      </trkpt>
      <trkpt lat="47.76558" lon="5.3088">
        <ele>327</ele>
        <time>2013-05-04T16:14:09.000Z</time>
      </trkpt>
      <trkpt lat="47.76556" lon="5.30878">
        <ele>327</ele>
        <time>2013-05-04T16:14:11.000Z</time>
      </trkpt>
      <trkpt lat="47.76553" lon="5.30876">
        <ele>327</ele>
        <time>2013-05-04T16:14:14.000Z</time>
      </trkpt>
      <trkpt lat="47.7655" lon="5.30875">
        <ele>327</ele>
        <time>2013-05-04T16:14:17.000Z</time>
      </trkpt>
      <trkpt lat="47.76548" lon="5.3087">
        <ele>327</ele>
        <time>2013-05-04T16:14:20.000Z</time>
      </trkpt>
      <trkpt lat="47.76544" lon="5.30862">
        <ele>327</ele>
        <time>2013-05-04T16:14:25.000Z</time>
      </trkpt>
      <trkpt lat="47.76525" lon="5.30831">
        <ele>327</ele>
        <time>2013-05-04T16:14:56.000Z</time>
      </trkpt>
      <trkpt lat="47.76522" lon="5.30828">
        <ele>327</ele>
        <time>2013-05-04T16:14:59.000Z</time>
      </trkpt>
      <trkpt lat="47.76511" lon="5.30816">
        <ele>326</ele>
        <time>2013-05-04T16:15:11.000Z</time>
      </trkpt>
      <trkpt lat="47.76509" lon="5.30811">
        <ele>326</ele>
        <time>2013-05-04T16:15:14.000Z</time>
      </trkpt>
      <trkpt lat="47.76501" lon="5.30797">
        <ele>326</ele>
        <time>2013-05-04T16:15:29.000Z</time>
      </trkpt>
      <trkpt lat="47.76499" lon="5.30798">
        <ele>326</ele>
        <time>2013-05-04T16:15:32.000Z</time>
      </trkpt>
      <trkpt lat="47.76498" lon="5.30799">
        <ele>325</ele>
        <time>2013-05-04T16:15:36.000Z</time>
      </trkpt>
      <trkpt lat="47.76497" lon="5.30801">
        <ele>325</ele>
        <time>2013-05-04T16:15:40.000Z</time>
      </trkpt>
      <trkpt lat="47.76492" lon="5.30807">
        <ele>325</ele>
        <time>2013-05-04T16:16:00.000Z</time>
      </trkpt>
    </trkseg>
  </trk>
</gpx>